M I D A S
Marine Information and Data Acquisition System
Tripno 908 of the Zeeleeuw from 2005-06-02 09:22:34 to 2005-06-02 13:49:12
Back to CruiseResearch ActivitiesStationsMapUnderway DataData graphs

EquipmentUnitsComment
TimeDGPSUTC
LatitudeDGPSDM.mWGS84
LongitudeDGPSDM.mWGS84
TemperatureSBE03/SBE38deg celciusITS90
ConductivitySBE21S/mITS90
SalinitySBE21 Practical Salinity Units
ChlorophylAChelsea fluorimeterg/lCalibrated in Aceton
Missing or incorrect values are displayed as -999
Sea surface data collected by the RV Zeeleeuw from 2005-06-02 06:40:46 to 2005-06-02 13:50:30
                                                                                    Next 1000 lines
Time Latitude Longitude Temperature Conductivity Salinity ChlorophylA
2005-06-02 06:40:56 51°13.587 2°56.108 21.1877 4.431277 31.096332 -0.916087
2005-06-02 06:41:00 51°13.59 2°56.109 21.1886 4.431172 31.095505 -0.882377
2005-06-02 06:41:06 51°13.596 2°56.109 21.1889 4.431172 31.096007 -0.882377
2005-06-02 06:41:11 51°13.596 2°56.109 21.1894 4.431172 31.096007 -0.882377
2005-06-02 06:41:16 51°13.596 2°56.109 21.1899 4.431172 31.096007 -0.916087
2005-06-02 06:41:20 51°13.597 2°56.109 21.1904 4.431172 31.096509 -0.882377
2005-06-02 06:41:26 51°13.596 2°56.109 21.1896 4.431066 31.095682 -0.916087
2005-06-02 06:41:31 51°13.596 2°56.109 21.1893 4.431066 31.095682 -0.916087
2005-06-02 06:41:36 51°13.596 2°56.109 21.1902 4.431066 31.095682 -0.882377
2005-06-02 06:41:40 51°13.596 2°56.109 21.192 4.431066 31.095682 -0.882377
2005-06-02 06:41:45 51°13.596 2°56.109 21.1922 4.430961 31.095859 -0.882377
2005-06-02 06:41:51 51°13.597 2°56.109 21.1929 4.430961 31.095859 -0.882377
2005-06-02 06:41:56 51°13.597 2°56.109 21.1922 4.430961 31.095859 -0.882377
2005-06-02 06:42:00 51°13.597 2°56.109 21.1884 4.430856 31.095535 -0.882377
2005-06-02 06:42:06 51°13.597 2°56.109 21.1843 4.430961 31.095859 -0.848668
2005-06-02 06:42:11 51°13.597 2°56.109 21.1876 4.430961 31.095859 -0.848668
2005-06-02 06:42:16 51°13.597 2°56.109 21.1905 4.430856 31.095535 -0.882377
2005-06-02 06:42:20 51°13.597 2°56.109 21.19 4.430856 31.095535 -0.916087
2005-06-02 06:42:26 51°13.597 2°56.109 21.1908 4.430856 31.095535 -0.916087
2005-06-02 06:42:31 51°13.597 2°56.108 21.1902 4.430856 31.096036 -0.882377
2005-06-02 06:42:36 51°13.597 2°56.108 21.189 4.43075 31.095712 -0.882377
2005-06-02 06:42:40 51°13.597 2°56.108 21.1909 4.43075 31.095712 -0.882377
2005-06-02 06:42:46 51°13.597 2°56.108 21.1921 4.430645 31.095387 -0.916087
2005-06-02 06:42:51 51°13.597 2°56.108 21.1923 4.43075 31.096214 -0.882377
2005-06-02 06:42:56 51°13.597 2°56.108 21.1853 4.43075 31.096214 -0.882377
2005-06-02 06:43:01 51°13.597 2°56.109 21.1858 4.430645 31.095889 -0.882377
2005-06-02 06:43:06 51°13.597 2°56.108 21.183 4.430645 31.095889 -0.882377
2005-06-02 06:43:11 51°13.597 2°56.108 21.1817 4.430645 31.095889 -0.882377
2005-06-02 06:43:16 51°13.597 2°56.108 21.183 4.430645 31.095889 -0.916087
2005-06-02 06:43:20 51°13.597 2°56.108 21.1856 4.430539 31.096066 -0.916087
2005-06-02 06:43:26 51°13.597 2°56.108 21.1879 4.430645 31.096391 -0.882377
2005-06-02 06:43:31 51°13.598 2°56.108 21.1888 4.430539 31.095564 -0.882377
2005-06-02 06:43:35 51°13.598 2°56.108 21.1897 4.430434 31.095239 -0.916087
2005-06-02 06:43:40 51°13.598 2°56.108 21.1911 4.430434 31.095239 -0.916087
2005-06-02 06:43:45 51°13.598 2°56.108 21.1972 4.430539 31.095564 -0.882377
2005-06-02 06:43:51 51°13.598 2°56.108 21.1976 4.430539 31.096568 -0.882377
2005-06-02 06:43:56 51°13.598 2°56.108 21.1972 4.430434 31.096243 -0.882377
2005-06-02 06:44:00 51°13.598 2°56.108 21.1944 4.430328 31.095416 -0.882377
2005-06-02 06:44:05 51°13.598 2°56.108 21.1892 4.430434 31.096243 -0.882377
2005-06-02 06:44:11 51°13.599 2°56.108 21.1871 4.430434 31.096243 -0.882377
2005-06-02 06:44:16 51°13.599 2°56.108 21.1844 4.430328 31.095416 -0.882377
2005-06-02 06:44:20 51°13.599 2°56.108 21.1879 4.430434 31.096745 -0.916087
2005-06-02 06:44:25 51°13.599 2°56.108 21.1884 4.430328 31.095918 -0.882377
2005-06-02 06:44:31 51°13.599 2°56.108 21.187 4.430223 31.095593 -0.882377
2005-06-02 06:44:36 51°13.599 2°56.108 21.1829 4.430117 31.094766 -0.882377
2005-06-02 06:44:40 51°13.599 2°56.108 21.1736 4.430117 31.094766 -0.882377
2005-06-02 06:44:45 51°13.599 2°56.108 21.1705 4.430223 31.096095 -0.882377
2005-06-02 06:44:51 51°13.599 2°56.108 21.1674 4.430223 31.095593 -0.848668
2005-06-02 06:44:55 51°13.599 2°56.108 21.1829 4.430117 31.095268 -0.882377
2005-06-02 06:45:00 51°13.599 2°56.108 21.1931 4.430117 31.095771 -0.882377
2005-06-02 06:45:06 51°13.6 2°56.108 21.1948 4.430117 31.095771 -0.882377
2005-06-02 06:45:11 51°13.6 2°56.108 21.2 4.430117 31.095771 -0.882377
2005-06-02 06:45:16 51°13.6 2°56.108 21.1982 4.430117 31.095771 -0.882377
2005-06-02 06:45:20 51°13.599 2°56.108 21.1988 4.430117 31.096273 -0.882377
2005-06-02 06:45:25 51°13.599 2°56.108 21.1978 4.430012 31.095446 -0.882377
2005-06-02 06:45:31 51°13.599 2°56.108 21.1968 4.430012 31.095948 -0.882377
2005-06-02 06:45:35 51°13.599 2°56.108 21.1947 4.430012 31.095948 -0.882377
2005-06-02 06:45:40 51°13.599 2°56.108 21.1939 4.430012 31.095948 -0.882377
2005-06-02 06:45:45 51°13.599 2°56.108 21.1925 4.429907 31.095121 -0.882377
2005-06-02 06:45:51 51°13.599 2°56.108 21.1901 4.429907 31.095623 -0.882377
2005-06-02 06:45:55 51°13.599 2°56.108 21.1916 4.429907 31.096125 -0.882377
2005-06-02 06:46:00 51°13.599 2°56.108 21.1994 4.429907 31.096125 -0.848668
2005-06-02 06:46:05 51°13.599 2°56.108 21.2055 4.429801 31.095298 -0.882377
2005-06-02 06:46:11 51°13.599 2°56.108 21.2079 4.429801 31.095298 -0.882377
2005-06-02 06:46:15 51°13.599 2°56.108 21.2105 4.429801 31.0958 -0.916087
2005-06-02 06:46:20 51°13.599 2°56.108 21.2112 4.429696 31.095475 -0.882377
2005-06-02 06:46:25 51°13.599 2°56.108 21.2093 4.429801 31.0958 -0.882377
2005-06-02 06:46:31 51°13.599 2°56.108 21.2078 4.429696 31.095475 -0.882377
2005-06-02 06:46:35 51°13.599 2°56.108 21.2043 4.429696 31.095977 -0.882377
2005-06-02 06:46:40 51°13.599 2°56.108 21.1978 4.429696 31.095977 -0.882377
2005-06-02 06:46:45 51°13.599 2°56.109 21.1876 4.42959 31.094648 -0.848668
2005-06-02 06:46:50 51°13.599 2°56.109 21.1898 4.429696 31.095977 -0.848668
2005-06-02 06:46:55 51°13.599 2°56.109 21.19 4.429696 31.095977 -0.882377
2005-06-02 06:47:00 51°13.599 2°56.109 21.1915 4.42959 31.095652 -0.882377
2005-06-02 06:47:05 51°13.599 2°56.109 21.1937 4.42959 31.09515 -0.882377
2005-06-02 06:47:10 51°13.599 2°56.109 21.1934 4.42959 31.09515 -0.882377
2005-06-02 06:47:15 51°13.599 2°56.109 21.1961 4.42959 31.095652 -0.882377
2005-06-02 06:47:20 51°13.599 2°56.109 21.1962 4.429485 31.095328 -0.882377
2005-06-02 06:47:25 51°13.599 2°56.109 21.196 4.429485 31.09583 -0.916087
2005-06-02 06:47:30 51°13.599 2°56.109 21.201 4.429485 31.095328 -0.882377
2005-06-02 06:47:35 51°13.599 2°56.109 21.203 4.429379 31.095003 -0.882377
2005-06-02 06:47:40 51°13.599 2°56.109 21.2036 4.429379 31.095003 -0.882377
2005-06-02 06:47:45 51°13.599 2°56.109 21.2054 4.429379 31.095505 -0.882377
2005-06-02 06:47:50 51°13.599 2°56.109 21.2068 4.429379 31.095505 -0.882377
2005-06-02 06:47:55 51°13.599 2°56.109 21.2066 4.429379 31.095505 -0.882377
2005-06-02 06:48:00 51°13.599 2°56.109 21.2047 4.429274 31.095682 -0.882377
2005-06-02 06:48:05 51°13.599 2°56.109 21.2006 4.429274 31.09518 -0.916087
2005-06-02 06:48:11 51°13.599 2°56.108 21.1996 4.429274 31.09518 -0.916087
2005-06-02 06:48:15 51°13.599 2°56.108 21.2038 4.429379 31.096509 -0.848668
2005-06-02 06:48:20 51°13.599 2°56.108 21.2028 4.429274 31.095682 -0.882377
2005-06-02 06:48:25 51°13.599 2°56.109 21.2059 4.429168 31.094855 -0.882377
2005-06-02 06:48:31 51°13.599 2°56.108 21.2077 4.429168 31.095357 -0.882377
2005-06-02 06:48:35 51°13.599 2°56.108 21.2089 4.429168 31.095357 -0.882377
2005-06-02 06:48:40 51°13.599 2°56.108 21.2089 4.429168 31.095357 -0.882377
2005-06-02 06:48:45 51°13.599 2°56.108 21.2079 4.429168 31.095859 -0.882377
2005-06-02 06:48:51 51°13.599 2°56.108 21.2039 4.429063 31.095032 -0.882377
2005-06-02 06:48:55 51°13.599 2°56.108 21.2039 4.429063 31.095032 -0.882377
2005-06-02 06:49:00 51°13.599 2°56.108 21.2029 4.429063 31.095535 -0.916087
2005-06-02 06:49:05 51°13.599 2°56.108 21.2019 4.428958 31.094707 -0.882377
2005-06-02 06:49:11 51°13.599 2°56.108 21.205 4.428958 31.094707 -0.882377
2005-06-02 06:49:15 51°13.599 2°56.108 21.2096 4.428958 31.09521 -0.916087
2005-06-02 06:49:20 51°13.599 2°56.108 21.2127 4.428958 31.095712 -0.882377
2005-06-02 06:49:25 51°13.599 2°56.108 21.2145 4.429063 31.096539 -0.882377
2005-06-02 06:49:30 51°13.599 2°56.108 21.2132 4.428852 31.094885 -0.916087
2005-06-02 06:49:35 51°13.599 2°56.108 21.2061 4.428852 31.095387 -0.882377
2005-06-02 06:49:40 51°13.599 2°56.108 21.2086 4.428852 31.095387 -0.882377
2005-06-02 06:49:45 51°13.599 2°56.108 21.2126 4.428852 31.094885 -0.882377
2005-06-02 06:49:50 51°13.599 2°56.108 21.2139 4.428852 31.095387 -0.882377
2005-06-02 06:49:55 51°13.599 2°56.108 21.2127 4.428852 31.095889 -0.882377
2005-06-02 06:50:00 51°13.599 2°56.108 21.2145 4.428747 31.095564 -0.882377
2005-06-02 06:50:05 51°13.599 2°56.108 21.2173 4.428747 31.095564 -0.882377
2005-06-02 06:50:10 51°13.599 2°56.108 21.2198 4.428747 31.095564 -0.882377
2005-06-02 06:50:15 51°13.599 2°56.108 21.222 4.428747 31.095564 -0.916087
2005-06-02 06:50:20 51°13.599 2°56.108 21.2239 4.428641 31.095239 -0.882377
2005-06-02 06:50:25 51°13.599 2°56.108 21.2258 4.428747 31.096569 -0.848668
2005-06-02 06:50:31 51°13.599 2°56.108 21.2271 4.428641 31.095742 -0.882377
2005-06-02 06:50:35 51°13.599 2°56.108 21.231 4.428641 31.096244 -0.882377
2005-06-02 06:50:40 51°13.599 2°56.108 21.2287 4.428641 31.096244 -0.882377
2005-06-02 06:50:45 51°13.599 2°56.108 21.2276 4.428536 31.095417 -0.882377
2005-06-02 06:50:51 51°13.599 2°56.108 21.2287 4.428641 31.096746 -0.882377
2005-06-02 06:50:55 51°13.599 2°56.108 21.2301 4.428536 31.095417 -0.882377
2005-06-02 06:51:00 51°13.599 2°56.108 21.2313 4.42843 31.095092 -0.916087
2005-06-02 06:51:05 51°13.598 2°56.108 21.2329 4.428536 31.096421 -0.916087
2005-06-02 06:51:11 51°13.598 2°56.108 21.2347 4.428536 31.096421 -0.916087
2005-06-02 06:51:15 51°13.598 2°56.108 21.2362 4.42843 31.095594 -0.882377
2005-06-02 06:51:20 51°13.598 2°56.108 21.2355 4.42843 31.096096 -0.882377
2005-06-02 06:51:25 51°13.598 2°56.108 21.2364 4.428325 31.095269 -0.882377
2005-06-02 06:51:30 51°13.598 2°56.108 21.2368 4.428325 31.095772 -0.882377
2005-06-02 06:51:35 51°13.599 2°56.108 21.238 4.428325 31.095269 -0.882377
2005-06-02 06:51:40 51°13.599 2°56.108 21.2383 4.428325 31.095269 -0.882377
2005-06-02 06:51:46 51°13.598 2°56.108 21.2394 4.428325 31.095772 -0.916087
2005-06-02 06:51:50 51°13.598 2°56.108 21.2389 4.428219 31.094944 -0.882377
2005-06-02 06:51:56 51°13.598 2°56.108 21.2384 4.428219 31.095447 -0.882377
2005-06-02 06:52:01 51°13.598 2°56.108 21.2397 4.428325 31.096274 -0.882377
2005-06-02 06:52:06 51°13.598 2°56.108 21.2404 4.428219 31.095949 -0.916087
2005-06-02 06:52:10 51°13.598 2°56.108 21.239 4.428219 31.095949 -0.916087
2005-06-02 06:52:15 51°13.598 2°56.108 21.2395 4.428114 31.095122 -0.848668
2005-06-02 06:52:21 51°13.598 2°56.108 21.2405 4.428114 31.095122 -0.882377
2005-06-02 06:52:26 51°13.598 2°56.108 21.2393 4.428114 31.096126 -0.882377
2005-06-02 06:52:30 51°13.598 2°56.108 21.2406 4.428114 31.096126 -0.916087
2005-06-02 06:52:35 51°13.598 2°56.108 21.2408 4.428009 31.095801 -0.882377
2005-06-02 06:52:41 51°13.598 2°56.108 21.2438 4.428009 31.095801 -0.882377
2005-06-02 06:52:46 51°13.598 2°56.108 21.242 4.428009 31.095801 -0.882377
2005-06-02 06:52:51 51°13.599 2°56.108 21.2367 4.428114 31.096629 -0.916087
2005-06-02 06:52:56 51°13.599 2°56.108 21.2302 4.427903 31.095477 -0.882377
2005-06-02 06:53:01 51°13.599 2°56.108 21.2299 4.427903 31.095477 -0.882377
2005-06-02 06:53:05 51°13.599 2°56.108 21.2288 4.427903 31.095477 -0.916087
2005-06-02 06:53:11 51°13.599 2°56.108 21.2354 4.427903 31.095477 -0.916087
2005-06-02 06:53:16 51°13.599 2°56.108 21.2407 4.427903 31.095979 -0.916087
2005-06-02 06:53:21 51°13.599 2°56.108 21.2468 4.427903 31.095979 -0.916087
2005-06-02 06:53:25 51°13.599 2°56.108 21.2496 4.427903 31.096481 -0.882377
2005-06-02 06:53:30 51°13.599 2°56.108 21.2453 4.427798 31.095654 -0.882377
2005-06-02 06:53:36 51°13.599 2°56.108 21.2432 4.427798 31.096156 -0.916087
2005-06-02 06:53:41 51°13.599 2°56.108 21.2494 4.427798 31.096156 -0.916087
2005-06-02 06:53:45 51°13.599 2°56.108 21.2517 4.427692 31.095329 -0.916087
2005-06-02 06:53:50 51°13.599 2°56.108 21.2527 4.427692 31.095329 -0.916087
2005-06-02 06:53:56 51°13.599 2°56.108 21.2565 4.427692 31.095832 -0.882377
2005-06-02 06:54:01 51°13.599 2°56.108 21.2573 4.427587 31.095004 -0.882377
2005-06-02 06:54:05 51°13.599 2°56.108 21.2577 4.427692 31.096836 -0.916087
2005-06-02 06:54:10 51°13.599 2°56.108 21.255 4.427692 31.096836 -0.916087
2005-06-02 06:54:15 51°13.599 2°56.108 21.2559 4.427587 31.095507 -0.848668
2005-06-02 06:54:21 51°13.599 2°56.108 21.2574 4.427587 31.096009 -0.882377
2005-06-02 06:54:25 51°13.599 2°56.108 21.2575 4.427481 31.095182 -0.916087
2005-06-02 06:54:30 51°13.599 2°56.108 21.2594 4.427481 31.095182 -0.916087
2005-06-02 06:54:36 51°13.599 2°56.108 21.2597 4.427376 31.095359 -0.882377
2005-06-02 06:54:41 51°13.599 2°56.108 21.261 4.427376 31.095359 -0.882377
2005-06-02 06:54:45 51°13.599 2°56.108 21.2617 4.427376 31.095359 -0.882377
2005-06-02 06:54:50 51°13.599 2°56.108 21.2621 4.427481 31.096187 -0.882377
2005-06-02 06:54:56 51°13.599 2°56.108 21.263 4.427376 31.095359 -0.916087
2005-06-02 06:55:00 51°13.599 2°56.108 21.2634 4.427376 31.095862 -0.882377
2005-06-02 06:55:05 51°13.599 2°56.108 21.2643 4.427376 31.096364 -0.882377
2005-06-02 06:55:10 51°13.599 2°56.108 21.2648 4.427376 31.096364 -0.882377
2005-06-02 06:55:16 51°13.599 2°56.108 21.2661 4.42727 31.095537 -0.916087
2005-06-02 06:55:20 51°13.599 2°56.108 21.2667 4.42727 31.095537 -0.882377
2005-06-02 06:55:25 51°13.599 2°56.108 21.2653 4.42727 31.096039 -0.882377
2005-06-02 06:55:30 51°13.599 2°56.108 21.2657 4.427165 31.095714 -0.916087
2005-06-02 06:55:36 51°13.599 2°56.108 21.2662 4.427165 31.095714 -0.916087
2005-06-02 06:55:40 51°13.599 2°56.108 21.2669 4.427165 31.095714 -0.916087
2005-06-02 06:55:45 51°13.599 2°56.108 21.2682 4.427165 31.095714 -0.882377
2005-06-02 06:55:50 51°13.599 2°56.108 21.2698 4.427165 31.096217 -0.882377
2005-06-02 06:55:55 51°13.599 2°56.108 21.2717 4.427165 31.096217 -0.916087
2005-06-02 06:56:01 51°13.599 2°56.108 21.2733 4.427059 31.095389 -0.882377
2005-06-02 06:56:06 51°13.599 2°56.108 21.2734 4.42706 31.095892 -0.882377
2005-06-02 06:56:10 51°13.599 2°56.108 21.2736 4.42706 31.095892 -0.882377
2005-06-02 06:56:16 51°13.599 2°56.108 21.2748 4.426954 31.095567 -0.882377
2005-06-02 06:56:21 51°13.599 2°56.108 21.2714 4.426954 31.095567 -0.882377
2005-06-02 06:56:26 51°13.599 2°56.108 21.2731 4.426954 31.096069 -0.882377
2005-06-02 06:56:30 51°13.599 2°56.108 21.2753 4.426849 31.095242 -0.916087
2005-06-02 06:56:36 51°13.599 2°56.108 21.2756 4.426954 31.095567 -0.882377
2005-06-02 06:56:41 51°13.599 2°56.108 21.2769 4.426954 31.095567 -0.882377
2005-06-02 06:56:46 51°13.599 2°56.108 21.2772 4.426849 31.095744 -0.882377
2005-06-02 06:56:50 51°13.599 2°56.108 21.2765 4.426954 31.096572 -0.882377
2005-06-02 06:56:56 51°13.599 2°56.108 21.2767 4.426849 31.095744 -0.916087
2005-06-02 06:57:01 51°13.599 2°56.108 21.2769 4.426743 31.094917 -0.882377
2005-06-02 06:57:06 51°13.599 2°56.108 21.2771 4.426743 31.09542 -0.882377
2005-06-02 06:57:10 51°13.599 2°56.108 21.2782 4.426743 31.09542 -0.882377
2005-06-02 06:57:16 51°13.599 2°56.108 21.2794 4.426743 31.095922 -0.882377
2005-06-02 06:57:21 51°13.599 2°56.108 21.2813 4.426638 31.095095 -0.882377
2005-06-02 06:57:26 51°13.599 2°56.108 21.2828 4.426743 31.095922 -0.882377
2005-06-02 06:57:30 51°13.599 2°56.108 21.2811 4.426638 31.095095 -0.882377
2005-06-02 06:57:36 51°13.599 2°56.108 21.2827 4.426638 31.095597 -0.916087
2005-06-02 06:57:40 51°13.599 2°56.108 21.2841 4.426638 31.095597 -0.916087
2005-06-02 06:57:46 51°13.599 2°56.107 21.2847 4.426532 31.09477 -0.916087
2005-06-02 06:57:50 51°13.599 2°56.107 21.2845 4.426532 31.095272 -0.882377
2005-06-02 06:57:56 51°13.599 2°56.108 21.2838 4.426532 31.095272 -0.882377
2005-06-02 06:58:01 51°13.599 2°56.108 21.2853 4.426532 31.095775 -0.916087
2005-06-02 06:58:06 51°13.599 2°56.107 21.288 4.426532 31.095775 -0.916087
2005-06-02 06:58:10 51°13.599 2°56.107 21.2898 4.426532 31.095775 -0.916087
2005-06-02 06:58:16 51°13.599 2°56.107 21.2902 4.426532 31.096277 -0.882377
2005-06-02 06:58:21 51°13.599 2°56.108 21.2883 4.426427 31.09545 -0.882377
2005-06-02 06:58:26 51°13.599 2°56.108 21.2883 4.426427 31.09545 -0.882377
2005-06-02 06:58:30 51°13.599 2°56.108 21.2899 4.426427 31.095952 -0.882377
2005-06-02 06:58:36 51°13.599 2°56.108 21.2945 4.426427 31.095952 -0.848668
2005-06-02 06:58:41 51°13.599 2°56.108 21.2952 4.426427 31.095952 -0.848668
2005-06-02 06:58:46 51°13.599 2°56.108 21.2929 4.426321 31.095627 -0.882377
2005-06-02 06:58:50 51°13.599 2°56.108 21.2939 4.426321 31.095627 -0.882377
2005-06-02 06:58:55 51°13.599 2°56.108 21.2956 4.426216 31.095302 -0.916087
2005-06-02 06:59:01 51°13.599 2°56.108 21.2943 4.426321 31.09613 -0.848668
2005-06-02 06:59:06 51°13.599 2°56.108 21.2947 4.426216 31.095302 -0.882377
2005-06-02 06:59:10 51°13.598 2°56.108 21.2953 4.426216 31.095302 -0.882377
2005-06-02 06:59:16 51°13.598 2°56.108 21.2939 4.426216 31.095805 -0.882377
2005-06-02 06:59:21 51°13.598 2°56.108 21.2952 4.42611 31.09548 -0.882377
2005-06-02 06:59:26 51°13.598 2°56.108 21.295 4.426005 31.094653 -0.848668
2005-06-02 06:59:31 51°13.599 2°56.108 21.2955 4.42611 31.09548 -0.882377
2005-06-02 06:59:36 51°13.598 2°56.108 21.297 4.42611 31.095983 -0.882377
2005-06-02 06:59:41 51°13.598 2°56.108 21.2988 4.42611 31.095983 -0.882377
2005-06-02 06:59:46 51°13.598 2°56.108 21.2992 4.426005 31.094653 -0.916087
2005-06-02 06:59:50 51°13.598 2°56.108 21.301 4.4259 31.09483 -0.882377
2005-06-02 06:59:55 51°13.598 2°56.108 21.3018 4.426005 31.095658 -0.916087
2005-06-02 07:00:00 51°13.598 2°56.108 21.3029 4.4259 31.09483 -0.848668
2005-06-02 07:00:05 51°13.598 2°56.108 21.3039 4.426005 31.096161 -0.916087
2005-06-02 07:00:10 51°13.598 2°56.108 21.3042 4.426005 31.096161 -0.916087
2005-06-02 07:00:15 51°13.598 2°56.108 21.3031 4.4259 31.09483 -0.882377
2005-06-02 07:00:21 51°13.598 2°56.108 21.3033 4.4259 31.095333 -0.882377
2005-06-02 07:00:25 51°13.598 2°56.108 21.3058 4.4259 31.095333 -0.882377
2005-06-02 07:00:30 51°13.598 2°56.108 21.3072 4.4259 31.095836 -0.916087
2005-06-02 07:00:35 51°13.598 2°56.108 21.3089 4.425794 31.095008 -0.882377
2005-06-02 07:00:41 51°13.598 2°56.108 21.3096 4.425794 31.095008 -0.882377
2005-06-02 07:00:45 51°13.598 2°56.108 21.3105 4.425794 31.0935 -0.882377
2005-06-02 07:00:50 51°13.598 2°56.108 21.3113 4.425689 31.089657 -0.882377
2005-06-02 07:00:55 51°13.598 2°56.108 21.3093 4.425583 31.08682 -0.882377
2005-06-02 07:01:00 51°13.598 2°56.108 21.3082 4.425689 31.086642 -0.882377
2005-06-02 07:01:05 51°13.598 2°56.108 21.3119 4.425689 31.086642 -0.848668
2005-06-02 07:01:10 51°13.598 2°56.108 21.3131 4.425689 31.086642 -0.848668
2005-06-02 07:01:15 51°13.598 2°56.108 21.3096 4.425689 31.08815 -0.882377
2005-06-02 07:01:21 51°13.598 2°56.108 21.313 4.425583 31.087322 -0.882377
2005-06-02 07:01:25 51°13.598 2°56.108 21.3059 4.425583 31.088327 -0.882377
2005-06-02 07:01:30 51°13.598 2°56.108 21.3095 4.425478 31.087499 -0.916087
2005-06-02 07:01:35 51°13.598 2°56.108 21.3124 4.425478 31.088504 -0.882377
2005-06-02 07:01:41 51°13.598 2°56.108 21.3143 4.425478 31.088504 -0.882377
2005-06-02 07:01:45 51°13.598 2°56.108 21.3112 4.425372 31.088179 -0.916087
2005-06-02 07:01:50 51°13.598 2°56.108 21.3131 4.425478 31.089509 -0.916087
2005-06-02 07:01:55 51°13.598 2°56.108 21.3169 4.425372 31.089184 -0.882377
2005-06-02 07:02:00 51°13.598 2°56.108 21.3145 4.425478 31.090515 -0.882377
2005-06-02 07:02:05 51°13.598 2°56.108 21.3141 4.425267 31.089362 -0.882377
2005-06-02 07:02:10 51°13.598 2°56.108 21.3143 4.425267 31.089362 -0.882377
2005-06-02 07:02:15 51°13.598 2°56.108 21.3096 4.425267 31.090367 -0.916087
2005-06-02 07:02:20 51°13.598 2°56.108 21.317 4.425267 31.09087 -0.916087
2005-06-02 07:02:25 51°13.598 2°56.108 21.3182 4.425267 31.091372 -0.882377
2005-06-02 07:02:30 51°13.598 2°56.108 21.3189 4.425267 31.091372 -0.916087
2005-06-02 07:02:35 51°13.598 2°56.108 21.3203 4.425267 31.091875 -0.916087
2005-06-02 07:02:40 51°13.598 2°56.108 21.3192 4.425267 31.091875 -0.916087
2005-06-02 07:02:45 51°13.598 2°56.108 21.3214 4.425267 31.09288 -0.882377
2005-06-02 07:02:50 51°13.598 2°56.108 21.321 4.425056 31.091225 -0.882377
2005-06-02 07:02:55 51°13.598 2°56.108 21.3217 4.425161 31.092555 -0.882377
2005-06-02 07:03:00 51°13.598 2°56.108 21.3217 4.425161 31.093058 -0.882377
2005-06-02 07:03:05 51°13.598 2°56.108 21.3219 4.425161 31.093561 -0.882377
2005-06-02 07:03:10 51°13.598 2°56.108 21.3223 4.425161 31.093561 -0.882377
2005-06-02 07:03:15 51°13.598 2°56.108 21.323 4.425056 31.092733 -0.882377
2005-06-02 07:03:21 51°13.598 2°56.108 21.3229 4.425056 31.093236 -0.882377
2005-06-02 07:03:25 51°13.598 2°56.108 21.3231 4.425056 31.093738 -0.916087
2005-06-02 07:03:30 51°13.598 2°56.108 21.3231 4.425056 31.094241 -0.916087
2005-06-02 07:03:35 51°13.598 2°56.108 21.3236 4.424951 31.092911 -0.882377
2005-06-02 07:03:41 51°13.598 2°56.108 21.3191 4.424951 31.092911 -0.882377
2005-06-02 07:03:45 51°13.598 2°56.108 21.3141 4.424845 31.093088 -0.848668
2005-06-02 07:03:50 51°13.598 2°56.108 21.3152 4.424951 31.093916 -0.916087
2005-06-02 07:03:55 51°13.598 2°56.108 21.3183 4.424845 31.093591 -0.882377
2005-06-02 07:04:00 51°13.598 2°56.108 21.3189 4.424845 31.093591 -0.848668
2005-06-02 07:04:05 51°13.598 2°56.108 21.3234 4.424845 31.094094 -0.882377
2005-06-02 07:04:11 51°13.598 2°56.108 21.3263 4.424845 31.094094 -0.882377
2005-06-02 07:04:15 51°13.598 2°56.108 21.3286 4.424845 31.093591 -0.882377
2005-06-02 07:04:21 51°13.598 2°56.108 21.3309 4.42474 31.093769 -0.882377
2005-06-02 07:04:26 51°13.599 2°56.108 21.3325 4.42474 31.093769 -0.882377
2005-06-02 07:04:31 51°13.599 2°56.108 21.3343 4.42474 31.094272 -0.848668
2005-06-02 07:04:35 51°13.599 2°56.108 21.3343 4.42474 31.094272 -0.916087
2005-06-02 07:04:41 51°13.599 2°56.108 21.3351 4.42474 31.094272 -0.916087
2005-06-02 07:04:46 51°13.599 2°56.108 21.3353 4.42474 31.094272 -0.848668
2005-06-02 07:04:51 51°13.599 2°56.108 21.3354 4.424634 31.093947 -0.882377
2005-06-02 07:04:56 51°13.599 2°56.108 21.3358 4.424529 31.093119 -0.916087
2005-06-02 07:05:01 51°13.599 2°56.108 21.3352 4.424634 31.094449 -0.882377
2005-06-02 07:05:06 51°13.599 2°56.108 21.3372 4.424529 31.093622 -0.882377
2005-06-02 07:05:11 51°13.599 2°56.108 21.3373 4.424529 31.093622 -0.882377
2005-06-02 07:05:16 51°13.599 2°56.108 21.3351 4.424529 31.094124 -0.848668
2005-06-02 07:05:21 51°13.599 2°56.108 21.3328 4.424423 31.093297 -0.882377
2005-06-02 07:05:26 51°13.599 2°56.108 21.3324 4.424423 31.093297 -0.882377
2005-06-02 07:05:31 51°13.599 2°56.108 21.3361 4.424423 31.093799 -0.916087
2005-06-02 07:05:36 51°13.599 2°56.108 21.3393 4.424318 31.092972 -0.916087
2005-06-02 07:05:41 51°13.599 2°56.108 21.3407 4.424318 31.092972 -0.916087
2005-06-02 07:05:46 51°13.599 2°56.108 21.3412 4.424318 31.093474 -0.882377
2005-06-02 07:05:51 51°13.599 2°56.108 21.3417 4.424318 31.093977 -0.916087
2005-06-02 07:05:55 51°13.599 2°56.108 21.3423 4.424318 31.093977 -0.882377
2005-06-02 07:06:01 51°13.599 2°56.108 21.3462 4.424318 31.093977 -0.916087
2005-06-02 07:06:06 51°13.599 2°56.109 21.3447 4.424212 31.093652 -0.882377
2005-06-02 07:06:11 51°13.6 2°56.108 21.3464 4.424212 31.093652 -0.882377
2005-06-02 07:06:15 51°13.599 2°56.108 21.3458 4.424107 31.093327 -0.848668
2005-06-02 07:06:21 51°13.6 2°56.108 21.3465 4.424212 31.093652 -0.916087
2005-06-02 07:06:26 51°13.6 2°56.108 21.3465 4.424212 31.094155 -0.916087
2005-06-02 07:06:31 51°13.6 2°56.109 21.348 4.424107 31.09383 -0.882377
2005-06-02 07:06:35 51°13.6 2°56.109 21.3491 4.424107 31.09383 -0.882377
2005-06-02 07:06:41 51°13.6 2°56.108 21.3406 4.424107 31.09383 -0.882377
2005-06-02 07:06:46 51°13.6 2°56.109 21.3376 4.424107 31.09383 -0.916087
2005-06-02 07:06:51 51°13.6 2°56.108 21.343 4.424001 31.093505 -0.916087
2005-06-02 07:06:55 51°13.6 2°56.108 21.3453 4.424107 31.094333 -0.848668
2005-06-02 07:07:01 51°13.6 2°56.108 21.3476 4.424002 31.094008 -0.882377
2005-06-02 07:07:06 51°13.6 2°56.108 21.3468 4.424002 31.094008 -0.916087
2005-06-02 07:07:11 51°13.6 2°56.108 21.3471 4.424002 31.094008 -0.916087
2005-06-02 07:07:16 51°13.6 2°56.108 21.3486 4.423896 31.09318 -0.916087
2005-06-02 07:07:21 51°13.6 2°56.108 21.3502 4.423896 31.093683 -0.882377
2005-06-02 07:07:25 51°13.6 2°56.108 21.351 4.423791 31.092855 -0.882377
2005-06-02 07:07:31 51°13.6 2°56.108 21.3515 4.423896 31.093683 -0.882377
2005-06-02 07:07:36 51°13.6 2°56.108 21.3519 4.423896 31.094186 -0.882377
2005-06-02 07:07:41 51°13.6 2°56.108 21.3523 4.423896 31.094186 -0.882377
2005-06-02 07:07:46 51°13.6 2°56.108 21.3532 4.423896 31.094689 -0.882377
2005-06-02 07:07:51 51°13.6 2°56.108 21.3553 4.423791 31.093358 -0.882377
2005-06-02 07:07:56 51°13.6 2°56.108 21.3578 4.423791 31.093861 -0.882377
2005-06-02 07:08:01 51°13.6 2°56.108 21.3568 4.423791 31.094364 -0.882377
2005-06-02 07:08:06 51°13.6 2°56.108 21.3565 4.423791 31.094364 -0.882377
2005-06-02 07:08:11 51°13.6 2°56.108 21.358 4.423791 31.094364 -0.882377
2005-06-02 07:08:15 51°13.6 2°56.108 21.3602 4.423685 31.094039 -0.882377
2005-06-02 07:08:21 51°13.6 2°56.108 21.3624 4.423685 31.094039 -0.882377
2005-06-02 07:08:26 51°13.6 2°56.108 21.3622 4.423685 31.094039 -0.916087
2005-06-02 07:08:31 51°13.6 2°56.109 21.3614 4.42358 31.094217 -0.916087
2005-06-02 07:08:35 51°13.6 2°56.109 21.3639 4.42358 31.093714 -0.882377
2005-06-02 07:08:41 51°13.6 2°56.109 21.3566 4.42358 31.093714 -0.882377
2005-06-02 07:08:46 51°13.6 2°56.109 21.3563 4.423474 31.093389 -0.882377
2005-06-02 07:08:51 51°13.6 2°56.109 21.3609 4.423474 31.093389 -0.916087
2005-06-02 07:08:55 51°13.6 2°56.109 21.3611 4.423474 31.093892 -0.916087
2005-06-02 07:09:00 51°13.6 2°56.109 21.3614 4.423369 31.093567 -0.882377
2005-06-02 07:09:06 51°13.6 2°56.109 21.3617 4.423474 31.093892 -0.848668
2005-06-02 07:09:11 51°13.6 2°56.109 21.3639 4.423474 31.093892 -0.848668
2005-06-02 07:09:15 51°13.6 2°56.109 21.3675 4.423474 31.093892 -0.916087
2005-06-02 07:09:21 51°13.599 2°56.109 21.3688 4.423263 31.092738 -0.916087
2005-06-02 07:09:25 51°13.599 2°56.109 21.3704 4.423369 31.09407 -0.882377
2005-06-02 07:09:31 51°13.599 2°56.109 21.3713 4.423263 31.093744 -0.882377
2005-06-02 07:09:35 51°13.599 2°56.109 21.3719 4.423369 31.094573 -0.882377
2005-06-02 07:09:41 51°13.599 2°56.109 21.3713 4.423369 31.094573 -0.882377
2005-06-02 07:09:45 51°13.599 2°56.109 21.3713 4.423263 31.093744 -0.882377
2005-06-02 07:09:50 51°13.599 2°56.109 21.3712 4.423158 31.092916 -0.882377
2005-06-02 07:09:55 51°13.599 2°56.109 21.3713 4.423263 31.094248 -0.882377
2005-06-02 07:10:01 51°13.599 2°56.109 21.372 4.423158 31.093419 -0.848668
2005-06-02 07:10:05 51°13.599 2°56.109 21.3739 4.423158 31.093922 -0.882377
2005-06-02 07:10:11 51°13.599 2°56.108 21.3718 4.423158 31.093922 -0.882377
2005-06-02 07:10:15 51°13.599 2°56.109 21.372 4.423052 31.093094 -0.882377
2005-06-02 07:10:21 51°13.599 2°56.109 21.373 4.423158 31.093922 -0.882377
2005-06-02 07:10:26 51°13.599 2°56.108 21.3737 4.423158 31.094426 -0.882377
2005-06-02 07:10:31 51°13.599 2°56.109 21.3763 4.423052 31.093597 -0.882377
2005-06-02 07:10:35 51°13.599 2°56.109 21.3788 4.423052 31.0941 -0.882377
2005-06-02 07:10:41 51°13.599 2°56.109 21.3795 4.423052 31.0941 -0.882377
2005-06-02 07:10:46 51°13.599 2°56.109 21.3801 4.423052 31.094604 -0.882377
2005-06-02 07:10:51 51°13.599 2°56.109 21.3805 4.423052 31.0941 -0.882377
2005-06-02 07:10:55 51°13.599 2°56.109 21.3823 4.422947 31.093775 -0.882377
2005-06-02 07:11:00 51°13.599 2°56.109 21.3823 4.422947 31.093775 -0.916087
2005-06-02 07:11:06 51°13.599 2°56.109 21.3829 4.422842 31.09345 -0.882377
2005-06-02 07:11:11 51°13.599 2°56.109 21.3784 4.422842 31.09345 -0.882377
2005-06-02 07:11:15 51°13.599 2°56.109 21.3704 4.422736 31.092622 -0.882377
2005-06-02 07:11:21 51°13.599 2°56.109 21.377 4.422842 31.09345 -0.882377
2005-06-02 07:11:26 51°13.599 2°56.108 21.3845 4.422842 31.093953 -0.916087
2005-06-02 07:11:31 51°13.599 2°56.108 21.3872 4.422736 31.093628 -0.916087
2005-06-02 07:11:36 51°13.599 2°56.108 21.387 4.422842 31.093953 -0.882377
2005-06-02 07:11:41 51°13.599 2°56.108 21.3867 4.422842 31.093953 -0.882377
2005-06-02 07:11:46 51°13.599 2°56.109 21.3874 4.422631 31.0928 -0.882377
2005-06-02 07:11:51 51°13.599 2°56.109 21.3882 4.422631 31.093303 -0.882377
2005-06-02 07:11:55 51°13.599 2°56.109 21.3881 4.422631 31.093303 -0.916087
2005-06-02 07:12:01 51°13.599 2°56.109 21.3865 4.422525 31.092978 -0.882377
2005-06-02 07:12:06 51°13.599 2°56.109 21.3826 4.422736 31.094635 -0.882377
2005-06-02 07:12:11 51°13.599 2°56.109 21.3827 4.422736 31.094635 -0.882377
2005-06-02 07:12:15 51°13.599 2°56.109 21.3849 4.422631 31.093806 -0.882377
2005-06-02 07:12:21 51°13.599 2°56.109 21.3862 4.422525 31.093481 -0.882377
2005-06-02 07:12:26 51°13.599 2°56.109 21.3885 4.422525 31.093481 -0.882377
2005-06-02 07:12:31 51°13.599 2°56.109 21.3879 4.422525 31.093481 -0.916087
2005-06-02 07:12:36 51°13.599 2°56.109 21.3886 4.42242 31.093156 -0.882377
2005-06-02 07:12:41 51°13.599 2°56.109 21.3913 4.42242 31.093156 -0.882377
2005-06-02 07:12:46 51°13.599 2°56.108 21.3918 4.42242 31.093659 -0.916087
2005-06-02 07:12:51 51°13.599 2°56.108 21.3932 4.42242 31.093659 -0.916087
2005-06-02 07:12:56 51°13.599 2°56.108 21.3947 4.42242 31.094162 -0.882377
2005-06-02 07:13:01 51°13.599 2°56.108 21.4005 4.42242 31.094162 -0.882377
2005-06-02 07:13:06 51°13.599 2°56.108 21.4016 4.422314 31.093837 -0.882377
2005-06-02 07:13:11 51°13.599 2°56.108 21.4052 4.422314 31.093837 -0.882377
2005-06-02 07:13:16 51°13.599 2°56.108 21.4078 4.422314 31.093334 -0.882377
2005-06-02 07:13:21 51°13.599 2°56.108 21.4071 4.422314 31.093837 -0.848668
2005-06-02 07:13:26 51°13.599 2°56.108 21.4084 4.422314 31.094341 -0.882377
2005-06-02 07:13:31 51°13.599 2°56.108 21.409 4.422209 31.093512 -0.882377
2005-06-02 07:13:36 51°13.599 2°56.108 21.4108 4.422209 31.093512 -0.882377
2005-06-02 07:13:41 51°13.599 2°56.108 21.4107 4.422209 31.093512 -0.882377
2005-06-02 07:13:46 51°13.599 2°56.108 21.4095 4.422103 31.093187 -0.882377
2005-06-02 07:13:51 51°13.599 2°56.108 21.4103 4.422103 31.093187 -0.882377
2005-06-02 07:13:56 51°13.599 2°56.108 21.4108 4.422103 31.093187 -0.882377
2005-06-02 07:14:01 51°13.599 2°56.108 21.4122 4.421998 31.092862 -0.882377
2005-06-02 07:14:06 51°13.599 2°56.108 21.4121 4.421998 31.092862 -0.882377
2005-06-02 07:14:11 51°13.598 2°56.108 21.4121 4.421998 31.092862 -0.882377
2005-06-02 07:14:16 51°13.598 2°56.108 21.4137 4.421998 31.093365 -0.882377
2005-06-02 07:14:21 51°13.599 2°56.108 21.4148 4.421998 31.093365 -0.882377
2005-06-02 07:14:26 51°13.599 2°56.108 21.4163 4.421998 31.093365 -0.916087
2005-06-02 07:14:31 51°13.599 2°56.108 21.4168 4.421998 31.093869 -0.882377
2005-06-02 07:14:36 51°13.599 2°56.108 21.4184 4.421893 31.09304 -0.882377
2005-06-02 07:14:40 51°13.599 2°56.108 21.42 4.421893 31.09304 -0.882377
2005-06-02 07:14:45 51°13.599 2°56.108 21.421 4.421893 31.093543 -0.882377
2005-06-02 07:14:50 51°13.599 2°56.107 21.4215 4.421893 31.093543 -0.882377
2005-06-02 07:14:56 51°13.599 2°56.107 21.423 4.421787 31.093218 -0.882377
2005-06-02 07:15:00 51°13.599 2°56.107 21.4234 4.421787 31.093218 -0.916087
2005-06-02 07:15:06 51°13.599 2°56.107 21.4236 4.421787 31.093722 -0.882377
2005-06-02 07:15:11 51°13.599 2°56.107 21.4247 4.421787 31.093722 -0.882377
2005-06-02 07:15:16 51°13.599 2°56.107 21.4258 4.421787 31.093722 -0.882377
2005-06-02 07:15:20 51°13.599 2°56.107 21.4262 4.421682 31.092893 -0.882377
2005-06-02 07:15:25 51°13.599 2°56.107 21.428 4.421682 31.093396 -0.882377
2005-06-02 07:15:31 51°13.599 2°56.107 21.4301 4.421787 31.094225 -0.882377
2005-06-02 07:15:36 51°13.599 2°56.107 21.431 4.421682 31.093396 -0.882377
2005-06-02 07:15:40 51°13.599 2°56.107 21.4324 4.421682 31.093396 -0.882377
2005-06-02 07:15:46 51°13.599 2°56.108 21.433 4.421576 31.093071 -0.916087
2005-06-02 07:15:50 51°13.599 2°56.108 21.4337 4.421576 31.093071 -0.916087
2005-06-02 07:15:55 51°13.599 2°56.108 21.434 4.421576 31.093071 -0.882377
2005-06-02 07:16:00 51°13.599 2°56.108 21.4347 4.421471 31.092746 -0.882377
2005-06-02 07:16:05 51°13.599 2°56.108 21.4355 4.421471 31.09325 -0.882377
2005-06-02 07:16:11 51°13.599 2°56.108 21.4375 4.421471 31.09325 -0.882377
2005-06-02 07:16:16 51°13.599 2°56.108 21.4389 4.421471 31.09325 -0.916087
2005-06-02 07:16:20 51°13.599 2°56.108 21.4397 4.421471 31.093753 -0.882377
2005-06-02 07:16:25 51°13.599 2°56.108 21.4404 4.421365 31.092924 -0.882377
2005-06-02 07:16:31 51°13.599 2°56.107 21.4411 4.421365 31.092924 -0.848668
2005-06-02 07:16:36 51°13.599 2°56.107 21.4415 4.421365 31.093931 -0.882377
2005-06-02 07:16:40 51°13.599 2°56.108 21.4413 4.421365 31.093931 -0.882377
2005-06-02 07:16:46 51°13.599 2°56.108 21.4408 4.421365 31.093428 -0.916087
2005-06-02 07:16:51 51°13.599 2°56.108 21.4414 4.42126 31.093103 -0.882377
2005-06-02 07:16:56 51°13.599 2°56.107 21.4433 4.42126 31.093103 -0.882377
2005-06-02 07:17:01 51°13.599 2°56.108 21.4432 4.42126 31.093606 -0.882377
2005-06-02 07:17:06 51°13.599 2°56.108 21.4453 4.42126 31.093606 -0.882377
2005-06-02 07:17:11 51°13.599 2°56.108 21.4463 4.42126 31.093606 -0.882377
2005-06-02 07:17:16 51°13.599 2°56.108 21.4473 4.42126 31.093606 -0.848668
2005-06-02 07:17:21 51°13.599 2°56.107 21.4486 4.421154 31.093281 -0.848668
2005-06-02 07:17:26 51°13.599 2°56.107 21.4503 4.421049 31.092452 -0.882377
2005-06-02 07:17:31 51°13.599 2°56.107 21.4494 4.421154 31.093281 -0.882377
2005-06-02 07:17:36 51°13.599 2°56.107 21.4512 4.421049 31.092956 -0.882377
2005-06-02 07:17:40 51°13.599 2°56.107 21.4528 4.421049 31.092956 -0.882377
2005-06-02 07:17:46 51°13.599 2°56.107 21.4494 4.421049 31.092956 -0.882377
2005-06-02 07:17:51 51°13.599 2°56.107 21.4497 4.420944 31.093134 -0.882377
2005-06-02 07:17:56 51°13.599 2°56.107 21.45 4.421049 31.093459 -0.882377
2005-06-02 07:18:00 51°13.599 2°56.107 21.4502 4.420944 31.093134 -0.916087
2005-06-02 07:18:06 51°13.599 2°56.107 21.4519 4.421049 31.093962 -0.848668
2005-06-02 07:18:11 51°13.599 2°56.107 21.4533 4.421049 31.093962 -0.848668
2005-06-02 07:18:16 51°13.599 2°56.107 21.4543 4.421049 31.094466 -0.882377
2005-06-02 07:18:20 51°13.599 2°56.107 21.4558 4.420838 31.093312 -0.882377
2005-06-02 07:18:25 51°13.599 2°56.107 21.4617 4.420944 31.093637 -0.882377
2005-06-02 07:18:31 51°13.599 2°56.107 21.4598 4.420838 31.092809 -0.882377
2005-06-02 07:18:36 51°13.599 2°56.107 21.442 4.420733 31.092987 -0.882377
2005-06-02 07:18:40 51°13.599 2°56.107 21.4471 4.420733 31.092987 -0.882377
2005-06-02 07:18:45 51°13.599 2°56.107 21.4522 4.420733 31.092987 -0.882377
2005-06-02 07:18:51 51°13.599 2°56.107 21.4552 4.420838 31.094319 -0.882377
2005-06-02 07:18:56 51°13.599 2°56.107 21.4559 4.420733 31.09349 -0.882377
2005-06-02 07:19:00 51°13.599 2°56.107 21.4575 4.420733 31.09349 -0.882377
2005-06-02 07:19:05 51°13.599 2°56.107 21.4602 4.420733 31.09349 -0.916087
2005-06-02 07:19:11 51°13.599 2°56.107 21.4609 4.420733 31.09349 -0.916087
2005-06-02 07:19:15 51°13.599 2°56.107 21.4615 4.420627 31.093165 -0.882377
2005-06-02 07:19:20 51°13.599 2°56.107 21.4641 4.420627 31.093669 -0.916087
2005-06-02 07:19:25 51°13.599 2°56.107 21.4601 4.420627 31.093669 -0.882377
2005-06-02 07:19:31 51°13.599 2°56.108 21.4594 4.420627 31.094172 -0.882377
2005-06-02 07:19:36 51°13.599 2°56.108 21.4666 4.420522 31.093344 -0.882377
2005-06-02 07:19:40 51°13.599 2°56.108 21.4714 4.420522 31.093344 -0.882377
2005-06-02 07:19:46 51°13.599 2°56.108 21.4735 4.420522 31.093847 -0.882377
2005-06-02 07:19:51 51°13.599 2°56.108 21.4708 4.420416 31.093018 -0.882377
2005-06-02 07:19:56 51°13.599 2°56.108 21.4706 4.420522 31.093847 -0.916087
2005-06-02 07:20:00 51°13.599 2°56.108 21.4706 4.420416 31.093018 -0.848668
2005-06-02 07:20:06 51°13.599 2°56.108 21.4716 4.420416 31.093522 -0.882377
2005-06-02 07:20:11 51°13.599 2°56.108 21.4726 4.420416 31.093522 -0.882377
2005-06-02 07:20:16 51°13.599 2°56.108 21.4728 4.420311 31.093197 -0.882377
2005-06-02 07:20:20 51°13.599 2°56.108 21.4719 4.420311 31.093197 -0.916087
2005-06-02 07:20:26 51°13.599 2°56.108 21.466 4.420311 31.093197 -0.916087
2005-06-02 07:20:31 51°13.599 2°56.108 21.4679 4.420311 31.093197 -0.882377
2005-06-02 07:20:36 51°13.599 2°56.108 21.4753 4.420205 31.092872 -0.882377
2005-06-02 07:20:40 51°13.599 2°56.108 21.4837 4.420205 31.092872 -0.882377
2005-06-02 07:20:45 51°13.599 2°56.108 21.4721 4.420205 31.093375 -0.916087
2005-06-02 07:20:51 51°13.599 2°56.108 21.4713 4.420311 31.0937 -0.882377
2005-06-02 07:20:56 51°13.599 2°56.108 21.4749 4.420205 31.093375 -0.848668
2005-06-02 07:21:00 51°13.599 2°56.108 21.474 4.4201 31.092546 -0.848668
2005-06-02 07:21:05 51°13.599 2°56.108 21.4781 4.4201 31.09305 -0.882377
2005-06-02 07:21:11 51°13.599 2°56.108 21.4779 4.4201 31.09305 -0.882377
2005-06-02 07:21:16 51°13.599 2°56.108 21.4793 4.4201 31.093553 -0.882377
2005-06-02 07:21:20 51°13.599 2°56.108 21.48 4.4201 31.093553 -0.916087
2005-06-02 07:21:26 51°13.599 2°56.108 21.4826 4.419995 31.093228 -0.848668
2005-06-02 07:21:31 51°13.599 2°56.108 21.4976 4.419995 31.093228 -0.882377
2005-06-02 07:21:35 51°13.599 2°56.108 21.5001 4.4201 31.094057 -0.916087
2005-06-02 07:21:40 51°13.599 2°56.108 21.4948 4.4201 31.094057 -0.916087
2005-06-02 07:21:46 51°13.599 2°56.109 21.4915 4.419995 31.093228 -0.916087
2005-06-02 07:21:51 51°13.599 2°56.108 21.4949 4.419889 31.092903 -0.882377
2005-06-02 07:21:55 51°13.599 2°56.108 21.5024 4.419784 31.092578 -0.882377
2005-06-02 07:22:00 51°13.599 2°56.109 21.4972 4.419889 31.093407 -0.882377
2005-06-02 07:22:06 51°13.599 2°56.109 21.4962 4.419784 31.092578 -0.882377
2005-06-02 07:22:11 51°13.599 2°56.108 21.4962 4.419784 31.092578 -0.882377
2005-06-02 07:22:15 51°13.599 2°56.108 21.4871 4.419889 31.093407 -0.882377
2005-06-02 07:22:20 51°13.599 2°56.108 21.4798 4.419678 31.092253 -0.882377
2005-06-02 07:22:25 51°13.599 2°56.109 21.4774 4.419784 31.093081 -0.882377
2005-06-02 07:22:31 51°13.599 2°56.108 21.4945 4.419678 31.092253 -0.882377
2005-06-02 07:22:35 51°13.599 2°56.108 21.4997 4.419678 31.09326 -0.916087
2005-06-02 07:22:40 51°13.599 2°56.108 21.5011 4.419678 31.09326 -0.916087
2005-06-02 07:22:45 51°13.599 2°56.108 21.5016 4.419678 31.09326 -0.848668
2005-06-02 07:22:51 51°13.599 2°56.108 21.5005 4.419573 31.092431 -0.882377
2005-06-02 07:22:55 51°13.599 2°56.108 21.4984 4.419573 31.092935 -0.882377
2005-06-02 07:23:00 51°13.599 2°56.108 21.4979 4.419573 31.092431 -0.882377
2005-06-02 07:23:05 51°13.599 2°56.108 21.5032 4.419467 31.092106 -0.882377
2005-06-02 07:23:11 51°13.599 2°56.108 21.5071 4.419467 31.092106 -0.882377
2005-06-02 07:23:16 51°13.599 2°56.108 21.5017 4.419573 31.093438 -0.882377
2005-06-02 07:23:20 51°13.599 2°56.108 21.4974 4.419467 31.092609 -0.882377
2005-06-02 07:23:25 51°13.599 2°56.108 21.5063 4.419467 31.093113 -0.882377
2005-06-02 07:23:30 51°13.599 2°56.108 21.5028 4.419362 31.092284 -0.882377
2005-06-02 07:23:36 51°13.599 2°56.108 21.509 4.419362 31.092788 -0.882377
2005-06-02 07:23:40 51°13.599 2°56.108 21.5114 4.419362 31.092788 -0.882377
2005-06-02 07:23:45 51°13.599 2°56.108 21.5126 4.419362 31.092788 -0.882377
2005-06-02 07:23:51 51°13.599 2°56.108 21.5138 4.419362 31.092788 -0.882377
2005-06-02 07:23:55 51°13.599 2°56.108 21.5142 4.419256 31.092463 -0.916087
2005-06-02 07:24:00 51°13.599 2°56.108 21.5146 4.419256 31.092463 -0.882377
2005-06-02 07:24:05 51°13.599 2°56.108 21.5163 4.419256 31.092966 -0.882377
2005-06-02 07:24:11 51°13.599 2°56.108 21.5167 4.419256 31.092966 -0.882377
2005-06-02 07:24:15 51°13.599 2°56.108 21.5167 4.419362 31.093795 -0.882377
2005-06-02 07:24:20 51°13.599 2°56.108 21.5157 4.419151 31.092641 -0.848668
2005-06-02 07:24:25 51°13.599 2°56.108 21.5209 4.419151 31.093145 -0.882377
2005-06-02 07:24:31 51°13.599 2°56.108 21.5168 4.419151 31.093145 -0.916087
2005-06-02 07:24:35 51°13.599 2°56.108 21.5184 4.419045 31.09282 -0.882377
2005-06-02 07:24:40 51°13.599 2°56.108 21.5235 4.419045 31.09282 -0.882377
2005-06-02 07:24:45 51°13.599 2°56.108 21.5237 4.419151 31.093145 -0.882377
2005-06-02 07:24:51 51°13.599 2°56.109 21.5241 4.419046 31.093323 -0.882377
2005-06-02 07:24:55 51°13.599 2°56.109 21.5218 4.419045 31.09282 -0.882377
2005-06-02 07:25:00 51°13.599 2°56.109 21.5228 4.41894 31.092494 -0.882377
2005-06-02 07:25:05 51°13.599 2°56.109 21.5228 4.419046 31.093827 -0.882377
2005-06-02 07:25:11 51°13.599 2°56.109 21.5226 4.419046 31.093827 -0.882377
2005-06-02 07:25:15 51°13.599 2°56.109 21.524 4.41894 31.092494 -0.882377
2005-06-02 07:25:20 51°13.599 2°56.109 21.5263 4.418835 31.092169 -0.882377
2005-06-02 07:25:25 51°13.599 2°56.109 21.5293 4.418835 31.092169 -0.916087
2005-06-02 07:25:31 51°13.599 2°56.109 21.5338 4.41894 31.093502 -0.882377
2005-06-02 07:25:35 51°13.599 2°56.109 21.5301 4.418835 31.092673 -0.916087
2005-06-02 07:25:40 51°13.599 2°56.109 21.5273 4.418835 31.092673 -0.916087
2005-06-02 07:25:45 51°13.599 2°56.109 21.5267 4.418835 31.093176 -0.882377
2005-06-02 07:25:50 51°13.599 2°56.109 21.5266 4.418729 31.092348 -0.916087
2005-06-02 07:25:56 51°13.599 2°56.109 21.5289 4.418729 31.092851 -0.916087
2005-06-02 07:26:00 51°13.599 2°56.109 21.5304 4.418729 31.092851 -0.882377
2005-06-02 07:26:05 51°13.599 2°56.109 21.5323 4.418518 31.091194 -0.882377
2005-06-02 07:26:11 51°13.599 2°56.109 21.5339 4.418518 31.091194 -0.882377
2005-06-02 07:26:15 51°13.599 2°56.109 21.5359 4.418729 31.093355 -0.916087
2005-06-02 07:26:20 51°13.599 2°56.109 21.5371 4.418624 31.092526 -0.916087
2005-06-02 07:26:25 51°13.599 2°56.109 21.5371 4.418624 31.09303 -0.882377
2005-06-02 07:26:31 51°13.599 2°56.109 21.5372 4.418518 31.092201 -0.848668
2005-06-02 07:26:35 51°13.599 2°56.109 21.5351 4.418413 31.091876 -0.882377
2005-06-02 07:26:40 51°13.599 2°56.109 21.5284 4.418413 31.091876 -0.882377
2005-06-02 07:26:46 51°13.599 2°56.109 21.5227 4.418518 31.092705 -0.882377
2005-06-02 07:26:51 51°13.598 2°56.109 21.5351 4.418413 31.091876 -0.882377
2005-06-02 07:26:55 51°13.598 2°56.109 21.5405 4.418518 31.093208 -0.882377
2005-06-02 07:27:00 51°13.598 2°56.109 21.5472 4.418413 31.092379 -0.848668
2005-06-02 07:27:06 51°13.599 2°56.109 21.5463 4.418413 31.092379 -0.882377
2005-06-02 07:27:11 51°13.598 2°56.109 21.5467 4.418413 31.092379 -0.882377
2005-06-02 07:27:15 51°13.598 2°56.109 21.5474 4.418413 31.093387 -0.882377
2005-06-02 07:27:20 51°13.598 2°56.109 21.5485 4.418307 31.092558 -0.882377
2005-06-02 07:27:25 51°13.598 2°56.109 21.5504 4.418307 31.092558 -0.848668
2005-06-02 07:27:31 51°13.598 2°56.109 21.5531 4.418202 31.092233 -0.882377
2005-06-02 07:27:35 51°13.598 2°56.109 21.5542 4.418307 31.093062 -0.916087
2005-06-02 07:27:40 51°13.598 2°56.109 21.5547 4.418307 31.093062 -0.916087
2005-06-02 07:27:45 51°13.599 2°56.109 21.5555 4.418202 31.092736 -0.916087
2005-06-02 07:27:51 51°13.599 2°56.109 21.5546 4.418202 31.092736 -0.882377
2005-06-02 07:27:56 51°13.599 2°56.108 21.5544 4.418202 31.09324 -0.916087
2005-06-02 07:28:00 51°13.598 2°56.108 21.5584 4.418096 31.092915 -0.882377
2005-06-02 07:28:05 51°13.599 2°56.108 21.5603 4.418096 31.092915 -0.882377
2005-06-02 07:28:11 51°13.599 2°56.108 21.5614 4.418096 31.092915 -0.882377
2005-06-02 07:28:16 51°13.599 2°56.108 21.5618 4.418096 31.092915 -0.916087
2005-06-02 07:28:20 51°13.598 2°56.108 21.5617 4.417991 31.092086 -0.882377
2005-06-02 07:28:25 51°13.599 2°56.108 21.562 4.418096 31.093419 -0.882377
2005-06-02 07:28:31 51°13.598 2°56.108 21.5636 4.417991 31.09259 -0.882377
2005-06-02 07:28:36 51°13.598 2°56.108 21.5603 4.418096 31.093923 -0.916087
2005-06-02 07:28:40 51°13.599 2°56.108 21.5524 4.418096 31.093923 -0.916087
2005-06-02 07:28:45 51°13.598 2°56.108 21.5511 4.417886 31.092265 -0.882377
2005-06-02 07:28:51 51°13.598 2°56.108 21.5559 4.417991 31.093094 -0.882377
2005-06-02 07:28:55 51°13.599 2°56.108 21.5539 4.417886 31.092768 -0.882377
2005-06-02 07:29:00 51°13.598 2°56.108 21.5588 4.41778 31.091939 -0.882377
2005-06-02 07:29:06 51°13.598 2°56.108 21.5601 4.417886 31.093272 -0.882377
2005-06-02 07:29:11 51°13.599 2°56.108 21.5568 4.417886 31.093272 -0.882377
2005-06-02 07:29:15 51°13.599 2°56.108 21.5546 4.41778 31.092947 -0.916087
2005-06-02 07:29:20 51°13.599 2°56.108 21.5576 4.41778 31.092947 -0.916087
2005-06-02 07:29:25 51°13.599 2°56.108 21.5627 4.417675 31.092622 -0.882377
2005-06-02 07:29:31 51°13.598 2°56.108 21.5662 4.417675 31.092622 -0.882377
2005-06-02 07:29:35 51°13.598 2°56.108 21.5659 4.417675 31.092622 -0.882377
2005-06-02 07:29:40 51°13.598 2°56.108 21.5612 4.417675 31.092622 -0.882377
2005-06-02 07:29:45 51°13.598 2°56.108 21.5225 4.417569 31.091793 -0.882377
2005-06-02 07:29:51 51°13.599 2°56.108 21.525 4.417464 31.091467 -0.882377
2005-06-02 07:29:55 51°13.598 2°56.108 21.5529 4.417569 31.0928 -0.882377
2005-06-02 07:30:00 51°13.598 2°56.108 21.5641 4.417464 31.091971 -0.882377
2005-06-02 07:30:05 51°13.598 2°56.108 21.5671 4.417464 31.092475 -0.882377
2005-06-02 07:30:11 51°13.598 2°56.108 21.566 4.417464 31.092475 -0.882377
2005-06-02 07:30:16 51°13.599 2°56.108 21.5646 4.417569 31.093304 -0.882377
2005-06-02 07:30:20 51°13.599 2°56.108 21.5639 4.417464 31.092475 -0.882377
2005-06-02 07:30:25 51°13.598 2°56.108 21.5666 4.417358 31.09215 -0.916087
2005-06-02 07:30:31 51°13.598 2°56.108 21.5678 4.417358 31.092654 -0.916087
2005-06-02 07:30:36 51°13.598 2°56.108 21.5666 4.417358 31.092654 -0.916087
2005-06-02 07:30:40 51°13.599 2°56.108 21.5664 4.417358 31.092654 -0.916087
2005-06-02 07:30:45 51°13.598 2°56.108 21.5681 4.417253 31.092329 -0.882377
2005-06-02 07:30:51 51°13.598 2°56.108 21.5693 4.417358 31.092654 -0.882377
2005-06-02 07:30:56 51°13.598 2°56.108 21.5687 4.417358 31.093662 -0.882377
2005-06-02 07:31:00 51°13.598 2°56.108 21.57 4.417147 31.092003 -0.882377
2005-06-02 07:31:05 51°13.598 2°56.108 21.5808 4.417253 31.093336 -0.848668
2005-06-02 07:31:11 51°13.598 2°56.108 21.588 4.417253 31.093336 -0.848668
2005-06-02 07:31:15 51°13.598 2°56.108 21.5879 4.417253 31.092833 -0.882377
2005-06-02 07:31:21 51°13.598 2°56.108 21.5967 4.417253 31.093336 -0.882377
2005-06-02 07:31:25 51°13.598 2°56.108 21.5928 4.417147 31.093011 -0.882377
2005-06-02 07:31:31 51°13.598 2°56.108 21.584 4.417042 31.092686 -0.882377
2005-06-02 07:31:36 51°13.598 2°56.108 21.5839 4.417042 31.092686 -0.848668
2005-06-02 07:31:40 51°13.598 2°56.108 21.587 4.417042 31.092686 -0.848668
2005-06-02 07:31:45 51°13.598 2°56.108 21.5883 4.417042 31.09319 -0.882377
2005-06-02 07:31:51 51°13.598 2°56.108 21.5912 4.417042 31.092686 -0.882377
2005-06-02 07:31:56 51°13.598 2°56.108 21.5903 4.416937 31.092361 -0.882377
2005-06-02 07:32:01 51°13.598 2°56.108 21.6073 4.416937 31.092865 -0.916087
2005-06-02 07:32:06 51°13.598 2°56.108 21.6107 4.416937 31.093369 -0.882377
2005-06-02 07:32:11 51°13.598 2°56.108 21.6099 4.416937 31.093369 -0.882377
2005-06-02 07:32:16 51°13.598 2°56.108 21.6092 4.416831 31.093043 -0.848668
2005-06-02 07:32:21 51°13.598 2°56.108 21.6102 4.416937 31.093873 -0.882377
2005-06-02 07:32:25 51°13.598 2°56.107 21.6107 4.416831 31.093043 -0.882377
2005-06-02 07:32:30 51°13.598 2°56.107 21.6083 4.416726 31.092718 -0.882377
2005-06-02 07:32:36 51°13.598 2°56.107 21.6126 4.416726 31.092718 -0.882377
2005-06-02 07:32:41 51°13.598 2°56.107 21.6129 4.416726 31.092718 -0.882377
2005-06-02 07:32:45 51°13.598 2°56.107 21.6141 4.416726 31.092718 -0.882377
2005-06-02 07:32:51 51°13.598 2°56.107 21.6111 4.41662 31.092897 -0.916087
2005-06-02 07:32:56 51°13.598 2°56.107 21.6031 4.416515 31.092068 -0.882377
2005-06-02 07:33:01 51°13.598 2°56.107 21.6001 4.41662 31.092897 -0.882377
2005-06-02 07:33:05 51°13.598 2°56.107 21.6032 4.416515 31.092068 -0.848668
2005-06-02 07:33:10 51°13.598 2°56.107 21.6095 4.416515 31.092068 -0.848668
2005-06-02 07:33:16 51°13.598 2°56.107 21.612 4.416515 31.092572 -0.882377
2005-06-02 07:33:21 51°13.598 2°56.107 21.6129 4.416515 31.092572 -0.882377
2005-06-02 07:33:25 51°13.598 2°56.107 21.6152 4.416515 31.09358 -0.882377
2005-06-02 07:33:30 51°13.598 2°56.107 21.6171 4.416409 31.092246 -0.882377
2005-06-02 07:33:35 51°13.598 2°56.108 21.6176 4.416409 31.093255 -0.882377
2005-06-02 07:33:41 51°13.598 2°56.108 21.617 4.416409 31.093255 -0.882377
2005-06-02 07:33:45 51°13.598 2°56.108 21.6148 4.416304 31.092425 -0.882377
2005-06-02 07:33:51 51°13.598 2°56.108 21.6151 4.416304 31.092929 -0.916087
2005-06-02 07:33:55 51°13.598 2°56.108 21.6146 4.416304 31.092929 -0.882377
2005-06-02 07:34:00 51°13.598 2°56.108 21.616 4.416198 31.092604 -0.882377
2005-06-02 07:34:05 51°13.598 2°56.108 21.6194 4.416198 31.0921 -0.882377
2005-06-02 07:34:11 51°13.598 2°56.108 21.6217 4.416198 31.0921 -0.882377
2005-06-02 07:34:15 51°13.598 2°56.108 21.6228 4.416093 31.091775 -0.882377
2005-06-02 07:34:20 51°13.598 2°56.108 21.6211 4.416093 31.092279 -0.882377
2005-06-02 07:34:25 51°13.598 2°56.108 21.618 4.416198 31.093612 -0.882377
2005-06-02 07:34:31 51°13.598 2°56.108 21.6197 4.416093 31.093287 -0.882377
2005-06-02 07:34:35 51°13.598 2°56.108 21.6204 4.416093 31.092783 -0.848668
2005-06-02 07:34:41 51°13.599 2°56.108 21.6221 4.416093 31.092783 -0.848668
2005-06-02 07:34:45 51°13.598 2°56.108 21.6392 4.416093 31.093791 -0.882377
2005-06-02 07:34:50 51°13.598 2°56.108 21.6338 4.415882 31.092132 -0.882377
2005-06-02 07:34:56 51°13.598 2°56.108 21.6218 4.415988 31.092962 -0.916087
2005-06-02 07:35:01 51°13.599 2°56.108 21.6243 4.415777 31.092311 -0.882377
2005-06-02 07:35:05 51°13.599 2°56.108 21.6288 4.415882 31.092636 -0.882377
2005-06-02 07:35:10 51°13.599 2°56.108 21.6332 4.415882 31.092636 -0.882377
2005-06-02 07:35:15 51°13.598 2°56.107 21.6356 4.415882 31.093141 -0.882377
2005-06-02 07:35:20 51°13.599 2°56.107 21.6369 4.415777 31.092815 -0.882377
2005-06-02 07:35:25 51°13.598 2°56.107 21.6385 4.415671 31.09249 -0.882377
2005-06-02 07:35:30 51°13.598 2°56.107 21.6393 4.415671 31.09249 -0.848668
2005-06-02 07:35:35 51°13.598 2°56.107 21.6407 4.415671 31.09249 -0.882377
2005-06-02 07:35:40 51°13.598 2°56.107 21.6448 4.415671 31.09249 -0.882377
2005-06-02 07:35:45 51°13.598 2°56.107 21.6438 4.415671 31.09249 -0.882377
2005-06-02 07:35:50 51°13.598 2°56.107 21.6405 4.415671 31.092994 -0.882377
2005-06-02 07:35:55 51°13.598 2°56.107 21.6403 4.41546 31.091839 -0.882377
2005-06-02 07:36:00 51°13.598 2°56.107 21.6389 4.41546 31.092344 -0.882377
2005-06-02 07:36:05 51°13.598 2°56.107 21.6417 4.41546 31.091839 -0.882377
2005-06-02 07:36:10 51°13.598 2°56.107 21.6482 4.41546 31.091839 -0.882377
2005-06-02 07:36:15 51°13.598 2°56.107 21.6484 4.41546 31.092848 -0.882377
2005-06-02 07:36:20 51°13.598 2°56.107 21.6491 4.41546 31.092848 -0.882377
2005-06-02 07:36:25 51°13.598 2°56.107 21.6507 4.415355 31.092522 -0.882377
2005-06-02 07:36:31 51°13.598 2°56.107 21.651 4.415355 31.093027 -0.916087
2005-06-02 07:36:35 51°13.598 2°56.107 21.6518 4.415249 31.092197 -0.882377
2005-06-02 07:36:40 51°13.598 2°56.107 21.652 4.415249 31.092197 -0.882377
2005-06-02 07:36:45 51°13.598 2°56.107 21.6465 4.415144 31.091872 -0.916087
2005-06-02 07:36:51 51°13.598 2°56.107 21.65 4.415249 31.092701 -0.882377
2005-06-02 07:36:55 51°13.598 2°56.108 21.6508 4.415144 31.092376 -0.916087
2005-06-02 07:37:00 51°13.598 2°56.108 21.6517 4.415039 31.091547 -0.882377
2005-06-02 07:37:05 51°13.598 2°56.107 21.6526 4.415039 31.092051 -0.882377
2005-06-02 07:37:11 51°13.598 2°56.107 21.6537 4.415039 31.092051 -0.882377
2005-06-02 07:37:16 51°13.598 2°56.107 21.654 4.415039 31.092051 -0.848668
2005-06-02 07:37:21 51°13.598 2°56.107 21.6548 4.415039 31.092555 -0.916087
2005-06-02 07:37:25 51°13.598 2°56.108 21.6562 4.415039 31.092555 -0.882377
2005-06-02 07:37:31 51°13.598 2°56.108 21.6575 4.414933 31.092734 -0.882377
2005-06-02 07:37:36 51°13.598 2°56.107 21.6571 4.414933 31.09223 -0.916087
2005-06-02 07:37:41 51°13.598 2°56.107 21.6573 4.414933 31.09223 -0.916087
2005-06-02 07:37:45 51°13.598 2°56.107 21.6588 4.414933 31.092734 -0.882377
2005-06-02 07:37:51 51°13.598 2°56.108 21.6586 4.414828 31.091904 -0.882377
2005-06-02 07:37:56 51°13.598 2°56.107 21.6593 4.414828 31.092409 -0.882377
2005-06-02 07:38:01 51°13.598 2°56.108 21.6601 4.414722 31.092083 -0.882377
2005-06-02 07:38:05 51°13.599 2°56.108 21.6616 4.414722 31.092083 -0.916087
2005-06-02 07:38:10 51°13.598 2°56.108 21.6643 4.414722 31.092083 -0.916087
2005-06-02 07:38:16 51°13.598 2°56.107 21.667 4.414722 31.093092 -0.882377
2005-06-02 07:38:21 51°13.598 2°56.107 21.6657 4.414722 31.093092 -0.916087
2005-06-02 07:38:25 51°13.598 2°56.108 21.668 4.414722 31.092588 -0.882377
2005-06-02 07:38:31 51°13.598 2°56.107 21.6679 4.414511 31.091937 -0.916087
2005-06-02 07:38:36 51°13.598 2°56.108 21.6675 4.414511 31.092441 -0.916087
2005-06-02 07:38:40 51°13.598 2°56.108 21.669 4.414511 31.092441 -0.916087
2005-06-02 07:38:45 51°13.599 2°56.108 21.6679 4.414511 31.092441 -0.882377
2005-06-02 07:38:51 51°13.599 2°56.108 21.6662 4.414406 31.092116 -0.882377
2005-06-02 07:38:56 51°13.599 2°56.108 21.6627 4.414406 31.091612 -0.848668
2005-06-02 07:39:00 51°13.599 2°56.108 21.6656 4.414406 31.092116 -0.882377
2005-06-02 07:39:05 51°13.599 2°56.108 21.6688 4.4143 31.091791 -0.916087
2005-06-02 07:39:11 51°13.599 2°56.108 21.6705 4.4143 31.091791 -0.916087
2005-06-02 07:39:16 51°13.599 2°56.108 21.6673 4.4143 31.091791 -0.882377
2005-06-02 07:39:20 51°13.599 2°56.108 21.6634 4.4143 31.092295 -0.882377
2005-06-02 07:39:25 51°13.599 2°56.108 21.6626 4.414195 31.092474 -0.882377
2005-06-02 07:39:30 51°13.599 2°56.108 21.6609 4.414195 31.09197 -0.848668
2005-06-02 07:39:35 51°13.599 2°56.108 21.6664 4.41409 31.091644 -0.882377
2005-06-02 07:39:41 51°13.6 2°56.108 21.6688 4.41409 31.091644 -0.882377
2005-06-02 07:39:45 51°13.6 2°56.109 21.6725 4.41409 31.091644 -0.882377
2005-06-02 07:39:50 51°13.601 2°56.109 21.6737 4.41409 31.092653 -0.882377
2005-06-02 07:39:56 51°13.6 2°56.109 21.6749 4.413984 31.091823 -0.882377
2005-06-02 07:40:00 51°13.6 2°56.108 21.6765 4.413984 31.092328 -0.848668
2005-06-02 07:40:04 51°13.599 2°56.107 21.6659 4.413984 31.092832 -0.882377
2005-06-02 07:40:09 51°13.599 2°56.107 21.6652 4.413984 31.092832 -0.882377
2005-06-02 07:40:13 51°13.599 2°56.107 21.6718 4.413984 31.092832 -0.882377
2005-06-02 07:40:19 51°13.599 2°56.107 21.6696 4.413773 31.091677 -0.882377
2005-06-02 07:40:24 51°13.598 2°56.107 21.6774 4.413879 31.092507 -0.882377
2005-06-02 07:40:28 51°13.598 2°56.107 21.6789 4.413668 31.091352 -0.882377
2005-06-02 07:40:34 51°13.598 2°56.107 21.6784 4.413668 31.091352 -0.882377
2005-06-02 07:40:39 51°13.598 2°56.107 21.6799 4.413668 31.091352 -0.882377
2005-06-02 07:40:44 51°13.598 2°56.107 21.6825 4.413668 31.091856 -0.882377
2005-06-02 07:40:48 51°13.598 2°56.107 21.6835 4.413562 31.091531 -0.916087
2005-06-02 07:40:53 51°13.598 2°56.106 21.6851 4.413668 31.092361 -0.882377
2005-06-02 07:40:59 51°13.597 2°56.106 21.6865 4.413562 31.091531 -0.882377
2005-06-02 07:41:04 51°13.597 2°56.106 21.6885 4.413562 31.092035 -0.882377
2005-06-02 07:41:09 51°13.597 2°56.106 21.6855 4.413562 31.092035 -0.882377
2005-06-02 07:41:14 51°13.597 2°56.106 21.6854 4.413351 31.09088 -0.916087
2005-06-02 07:41:19 51°13.597 2°56.106 21.6908 4.413457 31.092215 -0.882377
2005-06-02 07:41:24 51°13.597 2°56.106 21.6901 4.413457 31.09171 -0.882377
2005-06-02 07:41:29 51°13.597 2°56.106 21.691 4.413351 31.091889 -0.848668
2005-06-02 07:41:34 51°13.597 2°56.106 21.6944 4.41314 31.090229 -0.882377
2005-06-02 07:41:39 51°13.597 2°56.106 21.6925 4.41314 31.090229 -0.882377
2005-06-02 07:41:44 51°13.597 2°56.106 21.6877 4.413246 31.091564 -0.848668
2005-06-02 07:41:49 51°13.597 2°56.106 21.6892 4.41314 31.090734 -0.916087
2005-06-02 07:41:54 51°13.597 2°56.106 21.6877 4.41314 31.091238 -0.882377
2005-06-02 07:41:59 51°13.597 2°56.106 21.689 4.41314 31.091743 -0.916087
2005-06-02 07:42:04 51°13.597 2°56.106 21.6908 4.413035 31.090913 -0.882377
2005-06-02 07:42:09 51°13.597 2°56.106 21.6902 4.413035 31.090913 -0.882377
2005-06-02 07:42:14 51°13.597 2°56.106 21.6876 4.413035 31.091418 -0.916087
2005-06-02 07:42:20 51°13.597 2°56.106 21.6982 4.413035 31.092427 -0.882377
2005-06-02 07:42:24 51°13.597 2°56.106 21.7028 4.41293 31.091092 -0.882377
2005-06-02 07:42:29 51°13.597 2°56.106 21.7059 4.41293 31.091092 -0.882377
2005-06-02 07:42:33 51°13.597 2°56.106 21.7057 4.41293 31.091597 -0.916087
2005-06-02 07:42:39 51°13.597 2°56.106 21.7074 4.41293 31.091597 -0.916087
2005-06-02 07:42:44 51°13.597 2°56.106 21.707 4.412824 31.091271 -0.882377
2005-06-02 07:42:49 51°13.597 2°56.106 21.7107 4.412719 31.090946 -0.916087
2005-06-02 07:42:54 51°13.597 2°56.106 21.7225 4.412824 31.091776 -0.882377
2005-06-02 07:42:59 51°13.596 2°56.106 21.7124 4.412719 31.091955 -0.882377
2005-06-02 07:43:04 51°13.596 2°56.106 21.706 4.412719 31.091955 -0.882377
2005-06-02 07:43:09 51°13.596 2°56.106 21.706 4.412719 31.091955 -0.882377
2005-06-02 07:43:13 51°13.596 2°56.106 21.7067 4.412719 31.091955 -0.882377
2005-06-02 07:43:19 51°13.596 2°56.106 21.7116 4.412613 31.09163 -0.882377
2005-06-02 07:43:24 51°13.596 2°56.106 21.713 4.412508 31.0908 -0.916087
2005-06-02 07:43:29 51°13.596 2°56.106 21.713 4.412508 31.091304 -0.882377
2005-06-02 07:43:33 51°13.596 2°56.106 21.7131 4.412508 31.091809 -0.882377
2005-06-02 07:43:39 51°13.596 2°56.106 21.7138 4.412508 31.091809 -0.882377
2005-06-02 07:43:44 51°13.596 2°56.106 21.7156 4.412402 31.091484 -0.848668
2005-06-02 07:43:49 51°13.596 2°56.106 21.7173 4.412297 31.090654 -0.882377
2005-06-02 07:43:54 51°13.596 2°56.106 21.7169 4.412297 31.091158 -0.916087
2005-06-02 07:43:59 51°13.596 2°56.106 21.72 4.412297 31.091158 -0.916087
2005-06-02 07:44:04 51°13.596 2°56.106 21.7222 4.412191 31.090833 -0.916087
2005-06-02 07:44:08 51°13.596 2°56.106 21.7227 4.412191 31.090833 -0.916087
2005-06-02 07:44:14 51°13.596 2°56.106 21.7242 4.412191 31.091338 -0.848668
2005-06-02 07:44:19 51°13.597 2°56.106 21.7249 4.412297 31.092168 -0.882377
2005-06-02 07:44:24 51°13.597 2°56.106 21.7246 4.412086 31.091012 -0.848668
2005-06-02 07:44:29 51°13.597 2°56.106 21.7233 4.412086 31.091012 -0.882377
2005-06-02 07:44:34 51°13.597 2°56.106 21.7226 4.412086 31.092021 -0.882377
2005-06-02 07:44:39 51°13.597 2°56.106 21.7161 4.412086 31.092021 -0.882377
2005-06-02 07:44:44 51°13.597 2°56.106 21.7186 4.412086 31.091517 -0.916087
2005-06-02 07:44:49 51°13.597 2°56.106 21.7192 4.411981 31.091191 -0.916087
2005-06-02 07:44:54 51°13.597 2°56.106 21.7213 4.411981 31.091696 -0.882377
2005-06-02 07:44:59 51°13.597 2°56.106 21.7244 4.411875 31.090866 -0.882377
2005-06-02 07:45:04 51°13.597 2°56.107 21.7278 4.411875 31.091371 -0.882377
2005-06-02 07:45:09 51°13.597 2°56.107 21.7296 4.411875 31.091371 -0.882377
2005-06-02 07:45:13 51°13.597 2°56.107 21.7292 4.41177 31.090541 -0.882377
2005-06-02 07:45:19 51°13.597 2°56.106 21.7273 4.41177 31.091045 -0.916087
2005-06-02 07:45:24 51°13.597 2°56.106 21.7314 4.411664 31.090215 -0.882377
2005-06-02 07:45:29 51°13.597 2°56.106 21.73 4.411664 31.09072 -0.848668
2005-06-02 07:45:34 51°13.597 2°56.106 21.7265 4.411559 31.090394 -0.882377
2005-06-02 07:45:39 51°13.597 2°56.107 21.7281 4.411559 31.090394 -0.882377
2005-06-02 07:45:44 51°13.597 2°56.107 21.7286 4.411559 31.090394 -0.882377
2005-06-02 07:45:49 51°13.597 2°56.107 21.7285 4.411559 31.090899 -0.916087
2005-06-02 07:45:53 51°13.597 2°56.107 21.7302 4.411348 31.089239 -0.882377
2005-06-02 07:45:59 51°13.598 2°56.107 21.7347 4.411453 31.090574 -0.882377
2005-06-02 07:46:04 51°13.598 2°56.108 21.737 4.411453 31.091079 -0.848668
2005-06-02 07:46:09 51°13.598 2°56.108 21.7334 4.411453 31.091079 -0.848668
2005-06-02 07:46:14 51°13.597 2°56.107 21.7379 4.411453 31.091079 -0.882377
2005-06-02 07:46:19 51°13.598 2°56.107 21.7437 4.411348 31.090248 -0.882377
2005-06-02 07:46:24 51°13.598 2°56.107 21.7481 4.411348 31.091258 -0.916087
2005-06-02 07:46:29 51°13.598 2°56.107 21.75 4.411242 31.090428 -0.882377
2005-06-02 07:46:34 51°13.598 2°56.107 21.7502 4.411242 31.090428 -0.916087
2005-06-02 07:46:39 51°13.598 2°56.107 21.7504 4.411242 31.090428 -0.916087
2005-06-02 07:46:44 51°13.598 2°56.107 21.7505 4.411242 31.090932 -0.848668
2005-06-02 07:46:49 51°13.598 2°56.107 21.7497 4.411032 31.089777 -0.882377
2005-06-02 07:46:53 51°13.598 2°56.108 21.7505 4.411137 31.090607 -0.882377
2005-06-02 07:46:59 51°13.598 2°56.108 21.7507 4.411242 31.091942 -0.882377
2005-06-02 07:47:04 51°13.598 2°56.108 21.7509 4.411032 31.090282 -0.882377
2005-06-02 07:47:09 51°13.598 2°56.108 21.7512 4.411032 31.090282 -0.882377
2005-06-02 07:47:14 51°13.598 2°56.108 21.7457 4.410926 31.089956 -0.882377
2005-06-02 07:47:19 51°13.598 2°56.108 21.7455 4.410926 31.090461 -0.848668
2005-06-02 07:47:24 51°13.598 2°56.109 21.7456 4.410926 31.090461 -0.882377
2005-06-02 07:47:28 51°13.598 2°56.109 21.7429 4.410821 31.090136 -0.848668
2005-06-02 07:47:35 51°13.598 2°56.108 21.7533 4.410821 31.090136 -0.882377
2005-06-02 07:47:40 51°13.598 2°56.108 21.7603 4.410821 31.090136 -0.882377
2005-06-02 07:47:44 51°13.598 2°56.108 21.7627 4.410821 31.09064 -0.882377
2005-06-02 07:47:49 51°13.598 2°56.108 21.7627 4.410821 31.09064 -0.882377
2005-06-02 07:47:54 51°13.598 2°56.108 21.7625 4.41061 31.089485 -0.882377
2005-06-02 07:47:59 51°13.598 2°56.108 21.7628 4.410715 31.09082 -0.882377
2005-06-02 07:48:04 51°13.598 2°56.108 21.763 4.41061 31.089989 -0.882377
2005-06-02 07:48:09 51°13.599 2°56.108 21.7617 4.41061 31.089989 -0.882377
2005-06-02 07:48:14 51°13.599 2°56.108 21.758 4.41061 31.089989 -0.882377
2005-06-02 07:48:19 51°13.599 2°56.108 21.7583 4.41061 31.090494 -0.882377
2005-06-02 07:48:24 51°13.599 2°56.109 21.7598 4.410504 31.089664 -0.882377
2005-06-02 07:48:29 51°13.599 2°56.109 21.7606 4.410399 31.089339 -0.882377
2005-06-02 07:48:34 51°13.599 2°56.109 21.7619 4.410399 31.089843 -0.882377
2005-06-02 07:48:39 51°13.599 2°56.109 21.7623 4.410399 31.089843 -0.882377
2005-06-02 07:48:44 51°13.599 2°56.109 21.7632 4.410293 31.089013 -0.882377
2005-06-02 07:48:49 51°13.599 2°56.109 21.7649 4.410399 31.090348 -0.882377
2005-06-02 07:48:54 51°13.599 2°56.109 21.7661 4.410188 31.088688 -0.916087
2005-06-02 07:48:59 51°13.599 2°56.109 21.767 4.410188 31.089193 -0.916087
2005-06-02 07:49:04 51°13.599 2°56.109 21.7672 4.410188 31.089193 -0.882377
2005-06-02 07:49:09 51°13.599 2°56.109 21.7683 4.410188 31.089193 -0.882377
2005-06-02 07:49:14 51°13.599 2°56.109 21.7676 4.410188 31.089697 -0.882377
2005-06-02 07:49:20 51°13.599 2°56.109 21.7695 4.410188 31.090202 -0.882377
2005-06-02 07:49:24 51°13.598 2°56.109 21.7657 4.410188 31.090707 -0.848668
2005-06-02 07:49:29 51°13.598 2°56.109 21.7702 4.410083 31.089877 -0.882377
2005-06-02 07:49:34 51°13.599 2°56.109 21.774 4.410083 31.089877 -0.882377
2005-06-02 07:49:39 51°13.598 2°56.109 21.78 4.410083 31.089877 -0.882377
2005-06-02 07:49:44 51°13.599 2°56.109 21.7815 4.409977 31.089551 -0.882377
2005-06-02 07:49:49 51°13.599 2°56.109 21.7708 4.409977 31.089551 -0.882377
2005-06-02 07:49:54 51°13.598 2°56.109 21.7694 4.409977 31.090056 -0.848668
2005-06-02 07:49:59 51°13.599 2°56.109 21.7751 4.409766 31.0889 -0.882377
2005-06-02 07:50:04 51°13.599 2°56.109 21.777 4.409872 31.089731 -0.916087
2005-06-02 07:50:09 51°13.599 2°56.109 21.7786 4.409872 31.089731 -0.916087
2005-06-02 07:50:14 51°13.599 2°56.109 21.777 4.409766 31.089405 -0.882377
2005-06-02 07:50:19 51°13.599 2°56.109 21.7789 4.409766 31.08991 -0.882377
2005-06-02 07:50:24 51°13.598 2°56.109 21.7831 4.409661 31.08908 -0.882377
2005-06-02 07:50:29 51°13.598 2°56.109 21.787 4.409661 31.089585 -0.882377
2005-06-02 07:50:34 51°13.598 2°56.109 21.7885 4.409661 31.09009 -0.882377
2005-06-02 07:50:39 51°13.598 2°56.109 21.791 4.409661 31.09009 -0.882377
2005-06-02 07:50:44 51°13.598 2°56.109 21.792 4.409555 31.089259 -0.882377
2005-06-02 07:50:49 51°13.598 2°56.109 21.7968 4.40945 31.088934 -0.882377
2005-06-02 07:50:54 51°13.598 2°56.109 21.7979 4.40945 31.088934 -0.916087
2005-06-02 07:50:59 51°13.598 2°56.109 21.7994 4.40945 31.089439 -0.882377
2005-06-02 07:51:04 51°13.598 2°56.109 21.8001 4.40945 31.089439 -0.882377
2005-06-02 07:51:09 51°13.598 2°56.109 21.8 4.40945 31.089439 -0.882377
2005-06-02 07:51:13 51°13.598 2°56.109 21.8008 4.40945 31.089439 -0.882377
2005-06-02 07:51:19 51°13.599 2°56.109 21.8003 4.409344 31.089113 -0.882377
2005-06-02 07:51:24 51°13.598 2°56.109 21.8008 4.40945 31.090449 -0.882377
2005-06-02 07:51:29 51°13.599 2°56.109 21.8016 4.409239 31.088788 -0.916087
2005-06-02 07:51:33 51°13.599 2°56.109 21.8023 4.409344 31.090124 -0.916087
2005-06-02 07:51:39 51°13.598 2°56.109 21.8082 4.409344 31.090124 -0.916087
2005-06-02 07:51:44 51°13.599 2°56.109 21.8108 4.409239 31.090303 -0.848668
2005-06-02 07:51:48 51°13.599 2°56.109 21.813 4.409239 31.090303 -0.882377
2005-06-02 07:51:54 51°13.599 2°56.109 21.8135 4.409239 31.090808 -0.882377
2005-06-02 07:51:59 51°13.599 2°56.108 21.815 4.409134 31.089978 -0.882377
2005-06-02 07:52:04 51°13.599 2°56.108 21.8138 4.409028 31.089652 -0.882377
2005-06-02 07:52:09 51°13.599 2°56.108 21.8036 4.409028 31.089652 -0.882377
2005-06-02 07:52:14 51°13.599 2°56.108 21.7921 4.408923 31.088822 -0.916087
2005-06-02 07:52:19 51°13.599 2°56.108 21.7919 4.409028 31.090157 -0.882377
2005-06-02 07:52:24 51°13.599 2°56.108 21.7902 4.408923 31.089327 -0.882377
2005-06-02 07:52:29 51°13.599 2°56.108 21.7949 4.408923 31.089832 -0.848668
2005-06-02 07:52:34 51°13.599 2°56.108 21.7988 4.408923 31.090337 -0.882377
2005-06-02 07:52:39 51°13.599 2°56.108 21.8042 4.408923 31.090337 -0.882377
2005-06-02 07:52:44 51°13.599 2°56.108 21.808 4.408817 31.089506 -0.916087
2005-06-02 07:52:49 51°13.599 2°56.108 21.8122 4.408817 31.090011 -0.882377
2005-06-02 07:52:54 51°13.599 2°56.108 21.8128 4.408712 31.089181 -0.882377
2005-06-02 07:53:00 51°13.599 2°56.108 21.8136 4.408712 31.089686 -0.882377
2005-06-02 07:53:04 51°13.599 2°56.108 21.8124 4.408712 31.089686 -0.882377
2005-06-02 07:53:09 51°13.599 2°56.108 21.814 4.408712 31.089686 -0.882377
2005-06-02 07:53:14 51°13.599 2°56.109 21.8153 4.408606 31.088855 -0.882377
2005-06-02 07:53:19 51°13.599 2°56.109 21.8169 4.408501 31.089035 -0.916087
2005-06-02 07:53:24 51°13.599 2°56.109 21.8205 4.408501 31.089035 -0.916087
2005-06-02 07:53:29 51°13.599 2°56.109 21.8227 4.408395 31.088709 -0.882377
2005-06-02 07:53:34 51°13.599 2°56.109 21.8217 4.408395 31.088709 -0.916087
2005-06-02 07:53:39 51°13.599 2°56.109 21.8241 4.408395 31.088709 -0.916087
2005-06-02 07:53:44 51°13.599 2°56.109 21.825 4.408501 31.08954 -0.916087
2005-06-02 07:53:49 51°13.599 2°56.109 21.8263 4.408395 31.08972 -0.882377
2005-06-02 07:53:53 51°13.599 2°56.109 21.8289 4.40829 31.088384 -0.882377
2005-06-02 07:53:59 51°13.599 2°56.109 21.8317 4.408395 31.090225 -0.882377
2005-06-02 07:54:04 51°13.599 2°56.108 21.8334 4.408184 31.089069 -0.882377
2005-06-02 07:54:08 51°13.599 2°56.108 21.8346 4.408184 31.089069 -0.882377
2005-06-02 07:54:14 51°13.599 2°56.108 21.8345 4.408184 31.089069 -0.916087
2005-06-02 07:54:19 51°13.599 2°56.109 21.8357 4.408079 31.088743 -0.882377
2005-06-02 07:54:24 51°13.599 2°56.109 21.8359 4.408079 31.088743 -0.882377
2005-06-02 07:54:29 51°13.598 2°56.109 21.8365 4.408079 31.089248 -0.882377
2005-06-02 07:54:33 51°13.599 2°56.109 21.837 4.408079 31.089754 -0.882377
2005-06-02 07:54:39 51°13.599 2°56.109 21.8373 4.408079 31.089754 -0.882377
2005-06-02 07:54:44 51°13.599 2°56.109 21.8377 4.408079 31.090259 -0.882377
2005-06-02 07:54:49 51°13.599 2°56.109 21.8387 4.407974 31.089428 -0.916087
2005-06-02 07:54:54 51°13.599 2°56.109 21.8401 4.407868 31.088597 -0.916087
2005-06-02 07:54:59 51°13.599 2°56.109 21.8391 4.407868 31.089102 -0.916087
2005-06-02 07:55:04 51°13.599 2°56.11 21.8408 4.407868 31.089102 -0.882377
2005-06-02 07:55:09 51°13.599 2°56.11 21.8422 4.407868 31.089102 -0.882377
2005-06-02 07:55:14 51°13.599 2°56.11 21.8427 4.407868 31.090113 -0.882377
2005-06-02 07:55:19 51°13.599 2°56.11 21.8439 4.407763 31.088777 -0.882377
2005-06-02 07:55:24 51°13.599 2°56.11 21.8447 4.407763 31.089787 -0.848668
2005-06-02 07:55:28 51°13.599 2°56.11 21.8457 4.407657 31.088957 -0.882377
2005-06-02 07:55:33 51°13.599 2°56.11 21.8464 4.407657 31.089462 -0.882377
2005-06-02 07:55:40 51°13.598 2°56.11 21.8469 4.407657 31.089462 -0.882377
2005-06-02 07:55:44 51°13.598 2°56.11 21.8465 4.407657 31.089462 -0.916087
2005-06-02 07:55:49 51°13.598 2°56.11 21.8462 4.407552 31.089136 -0.882377
2005-06-02 07:55:54 51°13.598 2°56.11 21.8474 4.407552 31.089136 -0.882377
2005-06-02 07:56:00 51°13.599 2°56.11 21.8489 4.407446 31.088811 -0.882377
2005-06-02 07:56:04 51°13.599 2°56.11 21.8498 4.407446 31.088811 -0.882377
2005-06-02 07:56:09 51°13.598 2°56.11 21.8527 4.407446 31.088811 -0.882377
2005-06-02 07:56:14 51°13.598 2°56.11 21.8545 4.407446 31.089316 -0.882377
2005-06-02 07:56:19 51°13.598 2°56.11 21.8568 4.407446 31.089821 -0.882377
2005-06-02 07:56:24 51°13.599 2°56.11 21.8578 4.407341 31.089496 -0.882377
2005-06-02 07:56:29 51°13.599 2°56.11 21.8531 4.407341 31.088991 -0.882377
2005-06-02 07:56:33 51°13.598 2°56.11 21.8528 4.407235 31.088665 -0.882377
2005-06-02 07:56:39 51°13.598 2°56.11 21.8541 4.407235 31.088665 -0.882377
2005-06-02 07:56:44 51°13.598 2°56.11 21.8571 4.407235 31.08917 -0.882377
2005-06-02 07:56:49 51°13.599 2°56.11 21.8563 4.407236 31.089676 -0.882377
2005-06-02 07:56:54 51°13.599 2°56.11 21.8606 4.407025 31.088014 -0.916087
2005-06-02 07:56:59 51°13.599 2°56.11 21.8645 4.40713 31.08935 -0.882377
2005-06-02 07:57:04 51°13.599 2°56.11 21.8666 4.407025 31.088519 -0.882377
2005-06-02 07:57:09 51°13.598 2°56.109 21.8681 4.407025 31.088519 -0.882377
2005-06-02 07:57:13 51°13.598 2°56.11 21.868 4.407025 31.089025 -0.882377
2005-06-02 07:57:19 51°13.598 2°56.109 21.868 4.407025 31.089025 -0.882377
2005-06-02 07:57:24 51°13.598 2°56.109 21.869 4.406919 31.089204 -0.882377
2005-06-02 07:57:29 51°13.598 2°56.109 21.8694 4.406814 31.088374 -0.882377
2005-06-02 07:57:34 51°13.598 2°56.109 21.8705 4.406919 31.089204 -0.882377
2005-06-02 07:57:39 51°13.598 2°56.108 21.8715 4.406919 31.089204 -0.882377
2005-06-02 07:57:44 51°13.598 2°56.108 21.8707 4.406814 31.088879 -0.916087
2005-06-02 07:57:49 51°13.598 2°56.108 21.8692 4.406814 31.089384 -0.882377
2005-06-02 07:57:54 51°13.598 2°56.108 21.87 4.406708 31.088553 -0.916087
2005-06-02 07:57:59 51°13.598 2°56.108 21.8719 4.406603 31.088228 -0.882377
2005-06-02 07:58:04 51°13.598 2°56.108 21.8751 4.406603 31.088733 -0.882377
2005-06-02 07:58:09 51°13.598 2°56.108 21.8751 4.406603 31.088733 -0.882377
2005-06-02 07:58:13 51°13.598 2°56.108 21.8685 4.406603 31.088733 -0.882377
2005-06-02 07:58:19 51°13.598 2°56.108 21.8773 4.406603 31.089239 -0.882377
2005-06-02 07:58:24 51°13.598 2°56.108 21.8799 4.406603 31.089744 -0.882377
2005-06-02 07:58:28 51°13.598 2°56.108 21.8786 4.406497 31.088913 -0.916087
2005-06-02 07:58:34 51°13.598 2°56.108 21.8747 4.406392 31.088587 -0.882377
2005-06-02 07:58:39 51°13.598 2°56.108 21.877 4.406392 31.088587 -0.882377
2005-06-02 07:58:44 51°13.598 2°56.108 21.8792 4.406392 31.088587 -0.882377
2005-06-02 07:58:49 51°13.598 2°56.107 21.8838 4.406392 31.089093 -0.882377
2005-06-02 07:58:54 51°13.598 2°56.107 21.8856 4.406286 31.088262 -0.882377
2005-06-02 07:58:59 51°13.597 2°56.107 21.888 4.406286 31.088767 -0.882377
2005-06-02 07:59:04 51°13.597 2°56.107 21.8892 4.406286 31.089273 -0.848668
2005-06-02 07:59:09 51°13.597 2°56.107 21.8901 4.406286 31.089273 -0.848668
2005-06-02 07:59:14 51°13.597 2°56.107 21.8909 4.406286 31.089273 -0.882377
2005-06-02 07:59:19 51°13.597 2°56.107 21.8939 4.406181 31.088947 -0.882377
2005-06-02 07:59:24 51°13.598 2°56.107 21.896 4.406076 31.088622 -0.916087
2005-06-02 07:59:29 51°13.598 2°56.108 21.8977 4.406076 31.088622 -0.916087
2005-06-02 07:59:33 51°13.598 2°56.108 21.8988 4.40597 31.087791 -0.848668
2005-06-02 07:59:39 51°13.598 2°56.108 21.9005 4.40597 31.087791 -0.848668
2005-06-02 07:59:44 51°13.598 2°56.108 21.9009 4.406076 31.089633 -0.916087
2005-06-02 07:59:49 51°13.598 2°56.108 21.9015 4.40597 31.088802 -0.882377
2005-06-02 07:59:53 51°13.598 2°56.108 21.9024 4.405865 31.087971 -0.916087
2005-06-02 07:59:59 51°13.598 2°56.108 21.9013 4.405759 31.087645 -0.882377
2005-06-02 08:00:04 51°13.598 2°56.108 21.9018 4.405865 31.088982 -0.882377
2005-06-02 08:00:09 51°13.598 2°56.108 21.903 4.405865 31.088982 -0.882377
2005-06-02 08:00:15 51°13.598 2°56.108 21.9026 4.405759 31.08815 -0.882377
2005-06-02 08:00:20 51°13.598 2°56.108 21.9021 4.405759 31.088656 -0.848668
2005-06-02 08:00:24 51°13.598 2°56.108 21.9005 4.405759 31.088656 -0.848668
2005-06-02 08:00:29 51°13.598 2°56.108 21.9033 4.405654 31.08833 -0.916087
2005-06-02 08:00:33 51°13.598 2°56.109 21.9039 4.405654 31.08833 -0.848668
2005-06-02 08:00:40 51°13.598 2°56.108 21.9052 4.405654 31.08833 -0.848668
2005-06-02 08:00:44 51°13.598 2°56.108 21.9065 4.405548 31.088005 -0.882377
2005-06-02 08:00:49 51°13.598 2°56.108 21.9074 4.405548 31.08851 -0.882377
2005-06-02 08:00:54 51°13.598 2°56.108 21.9093 4.405443 31.088185 -0.882377
2005-06-02 08:01:00 51°13.598 2°56.108 21.9097 4.405443 31.088185 -0.916087
2005-06-02 08:01:04 51°13.598 2°56.109 21.9102 4.405443 31.088185 -0.882377
2005-06-02 08:01:09 51°13.598 2°56.109 21.9118 4.405443 31.088185 -0.882377
2005-06-02 08:01:13 51°13.598 2°56.109 21.9131 4.405337 31.087859 -0.882377
2005-06-02 08:01:19 51°13.598 2°56.109 21.9151 4.405443 31.089196 -0.882377
2005-06-02 08:01:24 51°13.598 2°56.109 21.9151 4.405337 31.08887 -0.882377
2005-06-02 08:01:29 51°13.598 2°56.109 21.9161 4.405232 31.088039 -0.882377
2005-06-02 08:01:34 51°13.598 2°56.109 21.9168 4.405232 31.088545 -0.882377
2005-06-02 08:01:39 51°13.598 2°56.109 21.917 4.405232 31.088545 -0.882377
2005-06-02 08:01:44 51°13.598 2°56.11 21.9174 4.405127 31.087714 -0.882377
2005-06-02 08:01:49 51°13.598 2°56.109 21.9175 4.405127 31.088219 -0.882377
2005-06-02 08:01:53 51°13.597 2°56.109 21.9181 4.405127 31.088725 -0.882377
2005-06-02 08:01:59 51°13.597 2°56.108 21.9191 4.405127 31.088725 -0.848668
2005-06-02 08:02:04 51°13.597 2°56.108 21.9196 4.405127 31.088725 -0.848668
2005-06-02 08:02:09 51°13.597 2°56.108 21.9204 4.404916 31.087568 -0.882377
2005-06-02 08:02:13 51°13.597 2°56.108 21.9168 4.404916 31.087568 -0.882377
2005-06-02 08:02:20 51°13.597 2°56.108 21.9178 4.40481 31.087242 -0.882377
2005-06-02 08:02:24 51°13.597 2°56.108 21.9213 4.404916 31.088074 -0.916087
2005-06-02 08:02:29 51°13.597 2°56.108 21.9221 4.404916 31.088579 -0.916087
2005-06-02 08:02:33 51°13.597 2°56.108 21.9227 4.404916 31.088579 -0.916087
2005-06-02 08:02:39 51°13.597 2°56.108 21.9251 4.404916 31.088579 -0.916087
2005-06-02 08:02:44 51°13.597 2°56.108 21.9249 4.40481 31.087748 -0.882377
2005-06-02 08:02:49 51°13.597 2°56.108 21.9288 4.40481 31.088254 -0.916087
2005-06-02 08:02:53 51°13.597 2°56.108 21.922 4.404705 31.087928 -0.848668
2005-06-02 08:02:59 51°13.597 2°56.108 21.9189 4.404599 31.087602 -0.882377
2005-06-02 08:03:04 51°13.597 2°56.108 21.9267 4.404705 31.088434 -0.882377
2005-06-02 08:03:09 51°13.597 2°56.108 21.9278 4.404705 31.088434 -0.882377
2005-06-02 08:03:14 51°13.598 2°56.108 21.9314 4.404494 31.087277 -0.882377
2005-06-02 08:03:19 51°13.597 2°56.108 21.9392 4.404494 31.087277 -0.882377
2005-06-02 08:03:24 51°13.597 2°56.108 21.9405 4.404494 31.088288 -0.882377
2005-06-02 08:03:29 51°13.597 2°56.108 21.9418 4.404388 31.087457 -0.916087
2005-06-02 08:03:34 51°13.597 2°56.108 21.9433 4.404388 31.087457 -0.882377
2005-06-02 08:03:39 51°13.598 2°56.108 21.9439 4.404388 31.087457 -0.882377
2005-06-02 08:03:44 51°13.597 2°56.108 21.9443 4.404283 31.086625 -0.882377
2005-06-02 08:03:49 51°13.597 2°56.108 21.9448 4.404283 31.087131 -0.882377
2005-06-02 08:03:54 51°13.598 2°56.108 21.9451 4.404283 31.088143 -0.882377
2005-06-02 08:03:59 51°13.598 2°56.108 21.9453 4.404283 31.088143 -0.882377
2005-06-02 08:04:04 51°13.598 2°56.108 21.9453 4.404388 31.08948 -0.882377